Observation data for Menard on 07/10/2018      Previous  Date       Current Mesonet Observations  Soil Data  Daily Summary Page  Observations in Plain Language
KMD1 100500Z 09002KT 22/21 A3021 RMK A01 T02220206  RH  091%=      5-min Rain = 0
KMD1 100501Z 09002KT 22/21 A3021 RMK A01 T02220207  RH  091%=      5-min Rain = 0
KMD1 100502Z 09001KT 22/21 A3021 RMK A01 T02220207  RH  091%=      5-min Rain = 0
KMD1 100503Z 09002KT 22/21 A3021 RMK A01 T02220207  RH  091%=      5-min Rain = 0
KMD1 100504Z 09002KT 22/21 A3021 RMK A01 T02220206  RH  091%=      5-min Rain = 0
KMD1 100505Z 09001KT 22/21 A3021 RMK A01 T02220207  RH  091%=      5-min Rain = 0
KMD1 100506Z 09002KT 22/21 A3021 RMK A01 T02220207  RH  091%=      5-min Rain = 0
KMD1 100507Z 10002KT 22/21 A3021 RMK A01 T02220207  RH  091%=      5-min Rain = 0
KMD1 100508Z 11002KT 22/21 A3021 RMK A01 T02220207  RH  091%=      5-min Rain = 0
KMD1 100509Z 11002KT 22/21 A3021 RMK A01 T02220206  RH  091%=      5-min Rain = 0
KMD1 100510Z 11002KT 22/21 A3021 RMK A01 T02220206  RH  091%=      5-min Rain = 0
KMD1 100511Z 11002KT 22/21 A3021 RMK A01 T02220206  RH  091%=      5-min Rain = 0
KMD1 100512Z 11002KT 22/21 A3021 RMK A01 T02210206  RH  091%=      5-min Rain = 0
KMD1 100513Z 10002KT 22/21 A3021 RMK A01 T02220206  RH  091%=      5-min Rain = 0
KMD1 100514Z 10002KT 22/21 A3021 RMK A01 T02210206  RH  091%=      5-min Rain = 0
KMD1 100515Z 10002KT 22/21 A3022 RMK A01 T02210206  RH  091%=      5-min Rain = 0
KMD1 100516Z 09002KT 22/21 A3022 RMK A01 T02200205  RH  091%=      5-min Rain = 0
KMD1 100517Z 09002KT 22/21 A3022 RMK A01 T02200205  RH  091%=      5-min Rain = 0
KMD1 100518Z 10001KT 22/21 A3022 RMK A01 T02200206  RH  092%=      5-min Rain = 0
KMD1 100519Z 11001KT 22/21 A3022 RMK A01 T02190205  RH  092%=      5-min Rain = 0
KMD1 100520Z 10001KT 22/21 A3022 RMK A01 T02190205  RH  092%=      5-min Rain = 0
KMD1 100521Z 10001KT 22/20 A3022 RMK A01 T02180204  RH  092%=      5-min Rain = 0
KMD1 100522Z 10001KT 22/20 A3022 RMK A01 T02180204  RH  092%=      5-min Rain = 0
KMD1 100523Z 10001KT 22/20 A3022 RMK A01 T02180204  RH  092%=      5-min Rain = 0
KMD1 100524Z 10001KT 22/20 A3022 RMK A01 T02170204  RH  092%=      5-min Rain = 0
KMD1 100525Z 11001KT 22/21 A3022 RMK A01 T02170205  RH  093%=      5-min Rain = 0
KMD1 100526Z 11002KT 22/21 A3022 RMK A01 T02170205  RH  093%=      5-min Rain = 0
KMD1 100527Z 11002KT 22/21 A3022 RMK A01 T02170205  RH  093%=      5-min Rain = 0
KMD1 100528Z 10002KT 22/21 A3022 RMK A01 T02170205  RH  093%=      5-min Rain = 0
KMD1 100529Z 10002KT 22/21 A3022 RMK A01 T02170206  RH  093%=      5-min Rain = 0
KMD1 100530Z 10002KT 22/21 A3022 RMK A01 T02170205  RH  093%=      5-min Rain = 0
KMD1 100531Z 09002KT 22/21 A3022 RMK A01 T02170205  RH  093%=      5-min Rain = 0
KMD1 100532Z 10002KT 22/21 A3022 RMK A01 T02170205  RH  093%=      5-min Rain = 0
KMD1 100533Z 09002KT 22/21 A3022 RMK A01 T02180206  RH  093%=      5-min Rain = 0
KMD1 100534Z 09003KT 22/21 A3022 RMK A01 T02170205  RH  093%=      5-min Rain = 0
KMD1 100535Z 08003KT 22/21 A3022 RMK A01 T02170205  RH  093%=      5-min Rain = 0
KMD1 100536Z 10003KT 22/21 A3022 RMK A01 T02170205  RH  093%=      5-min Rain = 0
KMD1 100537Z 10002KT 22/21 A3022 RMK A01 T02160205  RH  093%=      5-min Rain = 0
KMD1 100538Z 11002KT 22/21 A3022 RMK A01 T02160205  RH  093%=      5-min Rain = 0
KMD1 100539Z 11002KT 22/20 A3022 RMK A01 T02150204  RH  093%=      5-min Rain = 0
KMD1 100540Z 11002KT 22/21 A3022 RMK A01 T02150205  RH  094%=      5-min Rain = 0
KMD1 100541Z 10002KT 22/21 A3022 RMK A01 T02150205  RH  094%=      5-min Rain = 0
KMD1 100542Z 11002KT 22/21 A3022 RMK A01 T02150206  RH  094%=      5-min Rain = 0
KMD1 100543Z 10002KT 22/21 A3022 RMK A01 T02150206  RH  094%=      5-min Rain = 0
KMD1 100544Z 10001KT 22/21 A3022 RMK A01 T02150206  RH  094%=      5-min Rain = 0
KMD1 100545Z 11001KT 22/21 A3022 RMK A01 T02150206  RH  094%=      5-min Rain = 0
KMD1 100546Z 12001KT 22/21 A3022 RMK A01 T02150206  RH  094%=      5-min Rain = 0
KMD1 100547Z 11001KT 22/21 A3022 RMK A01 T02150205  RH  094%=      5-min Rain = 0
KMD1 100548Z 11001KT 22/21 A3022 RMK A01 T02150205  RH  094%=      5-min Rain = 0
KMD1 100549Z 10001KT 22/21 A3022 RMK A01 T02150206  RH  094%=      5-min Rain = 0
KMD1 100550Z 10001KT 22/21 A3022 RMK A01 T02150206  RH  095%=      5-min Rain = 0
KMD1 100551Z 10001KT 22/21 A3022 RMK A01 T02150206  RH  095%=      5-min Rain = 0
KMD1 100552Z 10002KT 22/21 A3022 RMK A01 T02150205  RH  095%=      5-min Rain = 0
KMD1 100553Z 10002KT 22/21 A3022 RMK A01 T02150206  RH  094%=      5-min Rain = 0
KMD1 100554Z 10001KT 22/21 A3022 RMK A01 T02150205  RH  094%=      5-min Rain = 0
KMD1 100555Z 11001KT 22/21 A3022 RMK A01 T02150205  RH  094%=      5-min Rain = 0
KMD1 100556Z 10001KT 22/21 A3022 RMK A01 T02150205  RH  094%=      5-min Rain = 0
KMD1 100557Z 09001KT 22/21 A3022 RMK A01 T02150205  RH  094%=      5-min Rain = 0
KMD1 100558Z 10001KT 22/21 A3022 RMK A01 T02150205  RH  094%=      5-min Rain = 0
KMD1 100559Z 10001KT 22/21 A3022 RMK A01 T02150205  RH  094%=      5-min Rain = 0
KMD1 100600Z 11002KT 22/21 A3022 RMK A01 T02150205  RH  094%=      5-min Rain = 0
KMD1 100601Z 12001KT 22/21 A3022 RMK A01 T02150205  RH  094%=      5-min Rain = 0
KMD1 100602Z 12001KT 22/21 A3022 RMK A01 T02160206  RH  094%=      5-min Rain = 0
KMD1 100603Z 12001KT 22/21 A3022 RMK A01 T02160206  RH  094%=      5-min Rain = 0
KMD1 100604Z 13001KT 22/21 A3022 RMK A01 T02160206  RH  094%=      5-min Rain = 0
KMD1 100605Z 14001KT 22/21 A3022 RMK A01 T02160206  RH  094%=      5-min Rain = 0
KMD1 100606Z 14001KT 22/21 A3022 RMK A01 T02160206  RH  094%=      5-min Rain = 0
KMD1 100607Z 14001KT 22/21 A3021 RMK A01 T02160206  RH  094%=      5-min Rain = 0
KMD1 100608Z 14000KT 22/21 A3021 RMK A01 T02160205  RH  094%=      5-min Rain = 0
KMD1 100609Z 00000KT 22/21 A3021 RMK A01 T02160205  RH  094%=      5-min Rain = 0
KMD1 100610Z 00000KT 22/21 A3021 RMK A01 T02160205  RH  094%=      5-min Rain = 0
KMD1 100611Z 00000KT 22/21 A3021 RMK A01 T02160205  RH  093%=      5-min Rain = 0
KMD1 100612Z 00000KT 22/21 A3021 RMK A01 T02160205  RH  093%=      5-min Rain = 0
KMD1 100613Z 00000KT 22/21 A3021 RMK A01 T02160205  RH  093%=      5-min Rain = 0
KMD1 100614Z 00000KT 22/21 A3021 RMK A01 T02160205  RH  093%=      5-min Rain = 0
KMD1 100615Z 16000KT 22/21 A3021 RMK A01 T02160205  RH  093%=      5-min Rain = 0
KMD1 100616Z 15000KT 22/20 A3021 RMK A01 T02160204  RH  093%=      5-min Rain = 0
KMD1 100617Z 00000KT 22/20 A3021 RMK A01 T02160204  RH  093%=      5-min Rain = 0
KMD1 100618Z 00000KT 22/20 A3021 RMK A01 T02160204  RH  093%=      5-min Rain = 0
KMD1 100619Z 17000KT 22/21 A3021 RMK A01 T02160205  RH  093%=      5-min Rain = 0
KMD1 100620Z 00000KT 22/21 A3021 RMK A01 T02160205  RH  093%=      5-min Rain = 0
KMD1 100621Z 00000KT 22/21 A3021 RMK A01 T02160205  RH  093%=      5-min Rain = 0
KMD1 100622Z 00000KT 22/21 A3021 RMK A01 T02160205  RH  093%=      5-min Rain = 0
KMD1 100623Z 00000KT 22/20 A3021 RMK A01 T02160204  RH  093%=      5-min Rain = 0
KMD1 100624Z 00000KT 22/20 A3021 RMK A01 T02150204  RH  093%=      5-min Rain = 0
KMD1 100625Z 00000KT 22/20 A3021 RMK A01 T02160204  RH  093%=      5-min Rain = 0
KMD1 100626Z 00000KT 22/20 A3021 RMK A01 T02160204  RH  093%=      5-min Rain = 0
KMD1 100627Z 00000KT 22/20 A3021 RMK A01 T02150204  RH  093%=      5-min Rain = 0
KMD1 100628Z 00000KT 22/20 A3021 RMK A01 T02150204  RH  093%=      5-min Rain = 0
KMD1 100629Z 00000KT 22/20 A3021 RMK A01 T02150204  RH  093%=      5-min Rain = 0
KMD1 100630Z 00000KT 22/20 A3021 RMK A01 T02150204  RH  093%=      5-min Rain = 0
KMD1 100631Z 00000KT 22/20 A3021 RMK A01 T02150204  RH  093%=      5-min Rain = 0
KMD1 100632Z 00000KT 22/20 A3021 RMK A01 T02150204  RH  093%=      5-min Rain = 0
KMD1 100633Z 00000KT 22/20 A3021 RMK A01 T02150204  RH  093%=      5-min Rain = 0
KMD1 100634Z 00000KT 21/20 A3021 RMK A01 T02140203  RH  093%=      5-min Rain = 0
KMD1 100635Z 00000KT 21/20 A3021 RMK A01 T02140203  RH  093%=      5-min Rain = 0
KMD1 100636Z 00000KT 21/20 A3021 RMK A01 T02140203  RH  093%=      5-min Rain = 0
KMD1 100637Z 00000KT 21/20 A3021 RMK A01 T02140203  RH  094%=      5-min Rain = 0
KMD1 100638Z 00000KT 21/20 A3021 RMK A01 T02140203  RH  094%=      5-min Rain = 0
KMD1 100639Z 00000KT 21/20 A3021 RMK A01 T02140204  RH  094%=      5-min Rain = 0
KMD1 100640Z 00000KT 21/20 A3021 RMK A01 T02140204  RH  094%=      5-min Rain = 0
KMD1 100641Z 00000KT 21/20 A3021 RMK A01 T02140204  RH  094%=      5-min Rain = 0
KMD1 100642Z 00000KT 21/20 A3021 RMK A01 T02140203  RH  094%=      5-min Rain = 0
KMD1 100643Z 00000KT 21/20 A3021 RMK A01 T02140203  RH  094%=      5-min Rain = 0
KMD1 100644Z 00000KT 21/20 A3021 RMK A01 T02140203  RH  094%=      5-min Rain = 0
KMD1 100645Z 00000KT 21/20 A3021 RMK A01 T02140203  RH  094%=      5-min Rain = 0
KMD1 100646Z 00000KT 21/20 A3021 RMK A01 T02140203  RH  094%=      5-min Rain = 0
KMD1 100647Z 00000KT 21/20 A3021 RMK A01 T02140203  RH  094%=      5-min Rain = 0
KMD1 100648Z 00000KT 21/20 A3021 RMK A01 T02140203  RH  094%=      5-min Rain = 0
KMD1 100649Z 00000KT 21/20 A3021 RMK A01 T02140202  RH  093%=      5-min Rain = 0
KMD1 100650Z 00000KT 21/20 A3021 RMK A01 T02130201  RH  093%=      5-min Rain = 0
KMD1 100651Z 00000KT 21/20 A3021 RMK A01 T02130201  RH  093%=      5-min Rain = 0
KMD1 100652Z 00000KT 21/20 A3021 RMK A01 T02130202  RH  093%=      5-min Rain = 0
KMD1 100653Z 00000KT 21/20 A3021 RMK A01 T02130202  RH  094%=      5-min Rain = 0
KMD1 100654Z 05001KT 21/20 A3021 RMK A01 T02130202  RH  094%=      5-min Rain = 0
KMD1 100655Z 05000KT 21/20 A3021 RMK A01 T02130203  RH  094%=      5-min Rain = 0
KMD1 100656Z 00000KT 21/20 A3021 RMK A01 T02130202  RH  094%=      5-min Rain = 0
KMD1 100657Z 00000KT 21/20 A3021 RMK A01 T02130202  RH  094%=      5-min Rain = 0
KMD1 100658Z 00000KT 21/20 A3021 RMK A01 T02130203  RH  094%=      5-min Rain = 0
KMD1 100659Z 00000KT 21/20 A3021 RMK A01 T02130203  RH  094%=      5-min Rain = 0
KMD1 100700Z 00000KT 21/20 A3021 RMK A01 T02130203  RH  094%=      5-min Rain = 0
KMD1 100701Z 00000KT 21/20 A3021 RMK A01 T02130203  RH  094%=      5-min Rain = 0
KMD1 100702Z 06000KT 21/20 A3021 RMK A01 T02130203  RH  094%=      5-min Rain = 0
KMD1 100703Z 06000KT 21/20 A3021 RMK A01 T02130203  RH  094%=      5-min Rain = 0
KMD1 100704Z 05000KT 21/20 A3021 RMK A01 T02130202  RH  093%=      5-min Rain = 0
KMD1 100705Z 04000KT 21/20 A3021 RMK A01 T02130202  RH  093%=      5-min Rain = 0
KMD1 100706Z 04000KT 21/20 A3021 RMK A01 T02130202  RH  093%=      5-min Rain = 0
KMD1 100707Z 04001KT 21/20 A3021 RMK A01 T02130202  RH  093%=      5-min Rain = 0
KMD1 100708Z 05001KT 21/20 A3021 RMK A01 T02130201  RH  093%=      5-min Rain = 0
KMD1 100709Z 05001KT 21/20 A3021 RMK A01 T02130201  RH  093%=      5-min Rain = 0
KMD1 100710Z 06001KT 21/20 A302 RMK A01 T02130201  RH  093%=      5-min Rain = 0
KMD1 100711Z 06002KT 21/20 A302 RMK A01 T02130202  RH  093%=      5-min Rain = 0
KMD1 100712Z 06002KT 21/20 A302 RMK A01 T02140202  RH  093%=      5-min Rain = 0
KMD1 100713Z 06002KT 21/20 A302 RMK A01 T02140202  RH  093%=      5-min Rain = 0
KMD1 100714Z 05002KT 21/20 A302 RMK A01 T02140201  RH  093%=      5-min Rain = 0
KMD1 100715Z 06002KT 21/20 A302 RMK A01 T02140202  RH  093%=      5-min Rain = 0
KMD1 100716Z 07001KT 21/20 A302 RMK A01 T02140202  RH  093%=      5-min Rain = 0
KMD1 100717Z 07001KT 21/20 A302 RMK A01 T02140202  RH  093%=      5-min Rain = 0
KMD1 100718Z 07001KT 21/20 A302 RMK A01 T02140202  RH  093%=      5-min Rain = 0
KMD1 100719Z 07002KT 21/20 A302 RMK A01 T02140202  RH  093%=      5-min Rain = 0
KMD1 100720Z 07002KT 21/20 A302 RMK A01 T02140202  RH  093%=      5-min Rain = 0
KMD1 100721Z 07002KT 21/20 A302 RMK A01 T02140202  RH  093%=      5-min Rain = 0
KMD1 100722Z 07002KT 21/20 A302 RMK A01 T02130203  RH  094%=      5-min Rain = 0
KMD1 100723Z 07002KT 21/20 A302 RMK A01 T02130202  RH  094%=      5-min Rain = 0
KMD1 100724Z 07002KT 21/20 A302 RMK A01 T02120202  RH  094%=      5-min Rain = 0
KMD1 100725Z 08002KT 21/20 A302 RMK A01 T02120202  RH  094%=      5-min Rain = 0
KMD1 100726Z 08002KT 21/20 A302 RMK A01 T02110202  RH  095%=      5-min Rain = 0
KMD1 100727Z 08001KT 21/20 A302 RMK A01 T02110202  RH  095%=      5-min Rain = 0
KMD1 100728Z 09001KT 21/20 A302 RMK A01 T02110202  RH  095%=      5-min Rain = 0
KMD1 100729Z 10001KT 21/20 A302 RMK A01 T02110203  RH  095%=      5-min Rain = 0
KMD1 100730Z 11001KT 21/20 A302 RMK A01 T02100202  RH  095%=      5-min Rain = 0
KMD1 100731Z 11002KT 21/20 A302 RMK A01 T02110202  RH  095%=      5-min Rain = 0
KMD1 100732Z 10001KT 21/20 A302 RMK A01 T02100202  RH  095%=      5-min Rain = 0
KMD1 100733Z 10001KT 21/20 A302 RMK A01 T02100202  RH  095%=      5-min Rain = 0
KMD1 100734Z 10002KT 21/20 A302 RMK A01 T02100202  RH  095%=      5-min Rain = 0
KMD1 100735Z 09001KT 21/20 A302 RMK A01 T02100201  RH  095%=      5-min Rain = 0
KMD1 100736Z 09001KT 21/20 A302 RMK A01 T02100202  RH  095%=      5-min Rain = 0
KMD1 100737Z 09001KT 21/20 A302 RMK A01 T02100202  RH  095%=      5-min Rain = 0
KMD1 100738Z 10001KT 21/20 A302 RMK A01 T02100202  RH  095%=      5-min Rain = 0
KMD1 100739Z 11002KT 21/20 A302 RMK A01 T02100201  RH  095%=      5-min Rain = 0
KMD1 100740Z 12002KT 21/20 A302 RMK A01 T02110202  RH  095%=      5-min Rain = 0
KMD1 100741Z 12002KT 21/20 A302 RMK A01 T02110202  RH  094%=      5-min Rain = 0
KMD1 100742Z 11002KT 21/20 A302 RMK A01 T02120202  RH  094%=      5-min Rain = 0
KMD1 100743Z 11002KT 21/20 A302 RMK A01 T02120202  RH  094%=      5-min Rain = 0
KMD1 100744Z 10002KT 21/20 A302 RMK A01 T02130201  RH  093%=      5-min Rain = 0
KMD1 100745Z 10002KT 21/20 A302 RMK A01 T02130201  RH  093%=      5-min Rain = 0
KMD1 100746Z 12003KT 21/20 A302 RMK A01 T02130201  RH  093%=      5-min Rain = 0
KMD1 100747Z 12003KT 21/20 A302 RMK A01 T02140201  RH  093%=      5-min Rain = 0
KMD1 100748Z 12002KT 21/20 A302 RMK A01 T02140201  RH  092%=      5-min Rain = 0
KMD1 100749Z 13002KT 21/20 A302 RMK A01 T02140201  RH  092%=      5-min Rain = 0
KMD1 100750Z 13002KT 21/20 A302 RMK A01 T02140201  RH  092%=      5-min Rain = 0
KMD1 100751Z 14003KT 22/20 A302 RMK A01 T02150201  RH  092%=      5-min Rain = 0
KMD1 100752Z 14003KT 22/20 A302 RMK A01 T02150201  RH  092%=      5-min Rain = 0
KMD1 100753Z 14003KT 21/20 A302 RMK A01 T02140200  RH  092%=      5-min Rain = 0
KMD1 100754Z 15003KT 21/20 A302 RMK A01 T02140201  RH  092%=      5-min Rain = 0
KMD1 100755Z 15003KT 21/20 A302 RMK A01 T02140201  RH  092%=      5-min Rain = 0
KMD1 100756Z 15003KT 21/20 A302 RMK A01 T02130200  RH  092%=      5-min Rain = 0
KMD1 100757Z 15003KT 21/20 A302 RMK A01 T02130201  RH  093%=      5-min Rain = 0
KMD1 100758Z 16003KT 21/20 A302 RMK A01 T02130201  RH  093%=      5-min Rain = 0
KMD1 100759Z 16003KT 21/20 A302 RMK A01 T02140202  RH  093%=      5-min Rain = 0
KMD1 100800Z 16003KT 21/20 A302 RMK A01 T02140202  RH  093%=      5-min Rain = 0
KMD1 100801Z 17003KT 21/20 A302 RMK A01 T02140202  RH  092%=      5-min Rain = 0
KMD1 100802Z 17003KT 21/20 A302 RMK A01 T02140202  RH  093%=      5-min Rain = 0
KMD1 100803Z 17003KT 22/20 A302 RMK A01 T02150202  RH  093%=      5-min Rain = 0
KMD1 100804Z 17003KT 22/20 A302 RMK A01 T02150203  RH  093%=      5-min Rain = 0
KMD1 100805Z 17002KT 22/20 A302 RMK A01 T02150203  RH  093%=      5-min Rain = 0
KMD1 100806Z 17002KT 22/20 A302 RMK A01 T02160203  RH  093%=      5-min Rain = 0
KMD1 100807Z 17003KT 22/20 A302 RMK A01 T02150203  RH  092%=      5-min Rain = 0
KMD1 100808Z 17003KT 22/20 A302 RMK A01 T02150202  RH  092%=      5-min Rain = 0
KMD1 100809Z 17003KT 22/20 A302 RMK A01 T02150203  RH  092%=      5-min Rain = 0
KMD1 100810Z 17003KT 22/20 A302 RMK A01 T02160202  RH  092%=      5-min Rain = 0
KMD1 100811Z 17003KT 22/20 A302 RMK A01 T02150202  RH  092%=      5-min Rain = 0
KMD1 100812Z 17003KT 22/20 A302 RMK A01 T02160203  RH  092%=      5-min Rain = 0
KMD1 100813Z 17003KT 22/20 A302 RMK A01 T02160203  RH  092%=      5-min Rain = 0
KMD1 100814Z 16004KT 22/20 A302 RMK A01 T02160203  RH  092%=      5-min Rain = 0
KMD1 100815Z 17003KT 22/20 A302 RMK A01 T02160203  RH  093%=      5-min Rain = 0
KMD1 100816Z 17004KT 22/20 A302 RMK A01 T02160203  RH  092%=      5-min Rain = 0
KMD1 100817Z 18003KT 22/20 A302 RMK A01 T02170204  RH  092%=      5-min Rain = 0
KMD1 100818Z 16004KT 22/20 A302 RMK A01 T02170204  RH  092%=      5-min Rain = 0
KMD1 100819Z 16003KT 22/20 A302 RMK A01 T02180204  RH  092%=      5-min Rain = 0
KMD1 100820Z 18003KT 22/21 A302 RMK A01 T02180205  RH  092%=      5-min Rain = 0
KMD1 100821Z 17004KT 22/21 A302 RMK A01 T02190205  RH  092%=      5-min Rain = 0
KMD1 100822Z 18004KT 22/21 A302 RMK A01 T02190205  RH  092%=      5-min Rain = 0
KMD1 100823Z 18003KT 22/21 A302 RMK A01 T02200205  RH  092%=      5-min Rain = 0
KMD1 100824Z 18004KT 22/21 A302 RMK A01 T02200205  RH  091%=      5-min Rain = 0
KMD1 100825Z 18003KT 22/21 A302 RMK A01 T02200205  RH  091%=      5-min Rain = 0
KMD1 100826Z 17002KT 22/21 A302 RMK A01 T02210206  RH  091%=      5-min Rain = 0
KMD1 100827Z 18002KT 22/21 A302 RMK A01 T02210205  RH  091%=      5-min Rain = 0
KMD1 100828Z 18002KT 22/21 A302 RMK A01 T02210205  RH  091%=      5-min Rain = 0
KMD1 100829Z 18001KT 22/21 A302 RMK A01 T02210205  RH  091%=      5-min Rain = 0
KMD1 100830Z 19003KT 22/21 A302 RMK A01 T02210205  RH  091%=      5-min Rain = 0
KMD1 100831Z 18003KT 22/21 A302 RMK A01 T02210205  RH  091%=      5-min Rain = 0
KMD1 100832Z 17002KT 22/21 A302 RMK A01 T02220205  RH  091%=      5-min Rain = 0
KMD1 100833Z 17001KT 22/21 A302 RMK A01 T02220206  RH  091%=      5-min Rain = 0
KMD1 100834Z 18001KT 22/21 A302 RMK A01 T02210205  RH  091%=      5-min Rain = 0
KMD1 100835Z 19000KT 22/21 A302 RMK A01 T02220206  RH  091%=      5-min Rain = 0
KMD1 100836Z 19000KT 22/21 A302 RMK A01 T02210205  RH  090%=      5-min Rain = 0
KMD1 100837Z 00000KT 22/21 A302 RMK A01 T02210205  RH  091%=      5-min Rain = 0
KMD1 100838Z 16000KT 22/21 A302 RMK A01 T02210205  RH  091%=      5-min Rain = 0
KMD1 100839Z 17000KT 22/21 A302 RMK A01 T02210205  RH  091%=      5-min Rain = 0
KMD1 100840Z 19001KT 22/21 A302 RMK A01 T02210205  RH  091%=      5-min Rain = 0
KMD1 100841Z 18001KT 22/21 A302 RMK A01 T02210205  RH  091%=      5-min Rain = 0
KMD1 100842Z 00000KT 22/21 A302 RMK A01 T02210205  RH  091%=      5-min Rain = 0
KMD1 100843Z 00000KT 22/21 A302 RMK A01 T02210205  RH  091%=      5-min Rain = 0
KMD1 100844Z 00000KT 22/21 A302 RMK A01 T02210205  RH  091%=      5-min Rain = 0
KMD1 100845Z 31000KT 22/21 A302 RMK A01 T02210205  RH  091%=      5-min Rain = 0
KMD1 100846Z 00000KT 22/21 A302 RMK A01 T02210206  RH  091%=      5-min Rain = 0
KMD1 100847Z 00000KT 22/21 A302 RMK A01 T02210206  RH  091%=      5-min Rain = 0
KMD1 100848Z 00000KT 22/21 A302 RMK A01 T02210205  RH  091%=      5-min Rain = 0
KMD1 100849Z 00000KT 22/21 A302 RMK A01 T02210205  RH  091%=      5-min Rain = 0
KMD1 100850Z 00000KT 22/21 A302 RMK A01 T02210206  RH  091%=      5-min Rain = 0
KMD1 100851Z 00000KT 22/21 A302 RMK A01 T02210206  RH  091%=      5-min Rain = 0
KMD1 100852Z 00000KT 22/21 A302 RMK A01 T02210206  RH  091%=      5-min Rain = 0
KMD1 100853Z 16000KT 22/21 A302 RMK A01 T02210206  RH  091%=      5-min Rain = 0
KMD1 100854Z 01000KT 22/20 A302 RMK A01 T02210204  RH  091%=      5-min Rain = 0
KMD1 100855Z 03000KT 22/21 A302 RMK A01 T02200205  RH  091%=      5-min Rain = 0
KMD1 100856Z 05000KT 22/21 A302 RMK A01 T02200205  RH  091%=      5-min Rain = 0
KMD1 100857Z 06001KT 22/21 A302 RMK A01 T02200206  RH  092%=      5-min Rain = 0
KMD1 100858Z 06000KT 22/21 A302 RMK A01 T02200206  RH  092%=      5-min Rain = 0
KMD1 100859Z 03001KT 22/21 A302 RMK A01 T02190206  RH  092%=      5-min Rain = 0
KMD1 100900Z 02001KT 22/21 A302 RMK A01 T02190206  RH  092%=      5-min Rain = 0
KMD1 100901Z 02001KT 22/21 A302 RMK A01 T02190206  RH  092%=      5-min Rain = 0
KMD1 100902Z 02001KT 22/21 A302 RMK A01 T02190206  RH  092%=      5-min Rain = 0
KMD1 100903Z 00000KT 22/21 A302 RMK A01 T02190206  RH  092%=      5-min Rain = 0
KMD1 100904Z 00000KT 22/21 A302 RMK A01 T02200206  RH  092%=      5-min Rain = 0
KMD1 100905Z 00000KT 22/21 A302 RMK A01 T02200206  RH  092%=      5-min Rain = 0
KMD1 100906Z 00000KT 22/21 A302 RMK A01 T02200207  RH  092%=      5-min Rain = 0
KMD1 100907Z 06000KT 22/21 A302 RMK A01 T02200206  RH  092%=      5-min Rain = 0
KMD1 100908Z 09000KT 22/21 A302 RMK A01 T02200207  RH  092%=      5-min Rain = 0
KMD1 100909Z 03000KT 22/21 A302 RMK A01 T02200206  RH  092%=      5-min Rain = 0
KMD1 100910Z 03001KT 22/21 A302 RMK A01 T02200206  RH  092%=      5-min Rain = 0
KMD1 100911Z 04000KT 22/21 A302 RMK A01 T02200206  RH  092%=      5-min Rain = 0
KMD1 100912Z 01000KT 22/21 A302 RMK A01 T02200206  RH  092%=      5-min Rain = 0
KMD1 100913Z 03000KT 22/21 A302 RMK A01 T02200207  RH  092%=      5-min Rain = 0
KMD1 100914Z 02001KT 22/21 A302 RMK A01 T02200206  RH  092%=      5-min Rain = 0
KMD1 100915Z 02000KT 22/21 A302 RMK A01 T02200207  RH  092%=      5-min Rain = 0
KMD1 100916Z 02000KT 22/21 A302 RMK A01 T02200207  RH  092%=      5-min Rain = 0
KMD1 100917Z 02000KT 22/21 A302 RMK A01 T02200208  RH  093%=      5-min Rain = 0
KMD1 100918Z 00000KT 22/21 A302 RMK A01 T02200208  RH  093%=      5-min Rain = 0
KMD1 100919Z 05000KT 22/21 A302 RMK A01 T02200208  RH  093%=      5-min Rain = 0
KMD1 100920Z 05000KT 22/21 A302 RMK A01 T02200208  RH  093%=      5-min Rain = 0
KMD1 100921Z 00000KT 22/21 A302 RMK A01 T02200207  RH  092%=      5-min Rain = 0
KMD1 100922Z 08000KT 22/21 A302 RMK A01 T02200207  RH  092%=      5-min Rain = 0
KMD1 100923Z 15001KT 22/21 A302 RMK A01 T02200207  RH  092%=      5-min Rain = 0
KMD1 100924Z 17001KT 22/21 A302 RMK A01 T02210207  RH  092%=      5-min Rain = 0
KMD1 100925Z 17001KT 22/21 A302 RMK A01 T02210206  RH  092%=      5-min Rain = 0
KMD1 100926Z 00000KT 22/21 A302 RMK A01 T02210206  RH  092%=      5-min Rain = 0
KMD1 100927Z 00000KT 22/21 A302 RMK A01 T02210207  RH  092%=      5-min Rain = 0
KMD1 100928Z 00000KT 22/21 A302 RMK A01 T02210207  RH  092%=      5-min Rain = 0
KMD1 100929Z 00000KT 22/21 A302 RMK A01 T02210207  RH  092%=      5-min Rain = 0
KMD1 100930Z 00000KT 22/21 A302 RMK A01 T02210207  RH  092%=      5-min Rain = 0
KMD1 100931Z 14001KT 22/21 A302 RMK A01 T02210207  RH  092%=      5-min Rain = 0
KMD1 100932Z 15001KT 22/21 A302 RMK A01 T02210207  RH  092%=      5-min Rain = 0
KMD1 100933Z 17001KT 22/21 A302 RMK A01 T02210207  RH  092%=      5-min Rain = 0
KMD1 100934Z 20000KT 22/21 A302 RMK A01 T02210207  RH  091%=      5-min Rain = 0
KMD1 100935Z 00000KT 22/21 A302 RMK A01 T02210207  RH  091%=      5-min Rain = 0
KMD1 100936Z 00000KT 22/21 A302 RMK A01 T02210206  RH  091%=      5-min Rain = 0
KMD1 100937Z 00000KT 22/21 A302 RMK A01 T02210207  RH  092%=      5-min Rain = 0
KMD1 100938Z 00000KT 22/21 A302 RMK A01 T02210207  RH  091%=      5-min Rain = 0
KMD1 100939Z 22001KT 22/21 A302 RMK A01 T02210206  RH  091%=      5-min Rain = 0
KMD1 100940Z 19001KT 22/21 A302 RMK A01 T02210206  RH  091%=      5-min Rain = 0
KMD1 100941Z 19000KT 22/21 A302 RMK A01 T02210206  RH  091%=      5-min Rain = 0
KMD1 100942Z 25000KT 22/21 A302 RMK A01 T02210205  RH  091%=      5-min Rain = 0
KMD1 100943Z 25000KT 22/21 A302 RMK A01 T02210205  RH  091%=      5-min Rain = 0
KMD1 100944Z 00000KT 22/21 A302 RMK A01 T02210205  RH  090%=      5-min Rain = 0
KMD1 100945Z 20000KT 22/21 A302 RMK A01 T02210205  RH  090%=      5-min Rain = 0
KMD1 100946Z 21000KT 22/21 A302 RMK A01 T02220205  RH  090%=      5-min Rain = 0
KMD1 100947Z 30000KT 22/21 A302 RMK A01 T02220205  RH  090%=      5-min Rain = 0
KMD1 100948Z 00000KT 22/21 A302 RMK A01 T02220205  RH  090%=      5-min Rain = 0
KMD1 100949Z 00000KT 22/21 A302 RMK A01 T02220205  RH  090%=      5-min Rain = 0
KMD1 100950Z 00000KT 22/21 A302 RMK A01 T02220205  RH  090%=      5-min Rain = 0
KMD1 100951Z 00000KT 22/21 A302 RMK A01 T02220205  RH  090%=      5-min Rain = 0
KMD1 100952Z 00000KT 22/21 A302 RMK A01 T02220205  RH  090%=      5-min Rain = 0
KMD1 100953Z 33000KT 22/20 A302 RMK A01 T02220204  RH  090%=      5-min Rain = 0
KMD1 100954Z 00000KT 22/20 A302 RMK A01 T02220204  RH  089%=      5-min Rain = 0
KMD1 100955Z 00000KT 22/21 A302 RMK A01 T02230205  RH  089%=      5-min Rain = 0
KMD1 100956Z 00000KT 22/21 A302 RMK A01 T02230205  RH  090%=      5-min Rain = 0
KMD1 100957Z 28000KT 22/21 A302 RMK A01 T02230206  RH  090%=      5-min Rain = 0
KMD1 100958Z 24000KT 22/21 A302 RMK A01 T02230205  RH  090%=      5-min Rain = 0
KMD1 100959Z 24000KT 22/21 A302 RMK A01 T02230205  RH  090%=      5-min Rain = 0
KMD1 101000Z 24000KT 22/21 A302 RMK A01 T02230205  RH  089%=      5-min Rain = 0
KMD1 101001Z 25000KT 22/20 A302 RMK A01 T02230204  RH  089%=      5-min Rain = 0
KMD1 101002Z 26000KT 22/20 A302 RMK A01 T02230204  RH  089%=      5-min Rain = 0
KMD1 101003Z 00000KT 22/20 A302 RMK A01 T02230204  RH  089%=      5-min Rain = 0
KMD1 101004Z 00000KT 22/21 A302 RMK A01 T02230205  RH  089%=      5-min Rain = 0
KMD1 101005Z 00000KT 22/20 A302 RMK A01 T02230204  RH  089%=      5-min Rain = 0
KMD1 101006Z 00000KT 22/20 A302 RMK A01 T02230204  RH  089%=      5-min Rain = 0
KMD1 101007Z 00000KT 22/20 A302 RMK A01 T02230204  RH  089%=      5-min Rain = 0
KMD1 101008Z 00000KT 22/20 A302 RMK A01 T02230204  RH  089%=      5-min Rain = 0
KMD1 101009Z 34000KT 22/20 A302 RMK A01 T02230204  RH  089%=      5-min Rain = 0
KMD1 101010Z 34001KT 22/21 A302 RMK A01 T02230205  RH  089%=      5-min Rain = 0
KMD1 101011Z 32000KT 22/20 A302 RMK A01 T02230204  RH  089%=      5-min Rain = 0
KMD1 101012Z 33001KT 22/21 A302 RMK A01 T02230206  RH  090%=      5-min Rain = 0
KMD1 101013Z 34001KT 22/21 A302 RMK A01 T02230206  RH  090%=      5-min Rain = 0
KMD1 101014Z 34001KT 22/21 A302 RMK A01 T02230207  RH  090%=      5-min Rain = 0
KMD1 101015Z 34002KT 22/21 A302 RMK A01 T02230207  RH  091%=      5-min Rain = 0
KMD1 101016Z 34002KT 22/21 A302 RMK A01 T02230208  RH  091%=      5-min Rain = 0
KMD1 101017Z 35002KT 22/21 A302 RMK A01 T02220207  RH  091%=      5-min Rain = 0
KMD1 101018Z 35002KT 22/21 A302 RMK A01 T02220206  RH  091%=      5-min Rain = 0
KMD1 101019Z 35002KT 22/21 A302 RMK A01 T02210206  RH  091%=      5-min Rain = 0
KMD1 101020Z 35002KT 22/21 A302 RMK A01 T02210206  RH  091%=      5-min Rain = 0
KMD1 101021Z 35002KT 22/21 A302 RMK A01 T02210206  RH  091%=      5-min Rain = 0
KMD1 101022Z 36002KT 22/21 A302 RMK A01 T02210206  RH  091%=      5-min Rain = 0
KMD1 101023Z 36002KT 22/21 A302 RMK A01 T02210206  RH  091%=      5-min Rain = 0
KMD1 101024Z 00002KT 22/21 A302 RMK A01 T02210205  RH  091%=      5-min Rain = 0
KMD1 101025Z 01002KT 22/21 A302 RMK A01 T02210205  RH  091%=      5-min Rain = 0
KMD1 101026Z 01002KT 22/21 A302 RMK A01 T02200205  RH  091%=      5-min Rain = 0
KMD1 101027Z 00002KT 22/21 A302 RMK A01 T02200205  RH  091%=      5-min Rain = 0
KMD1 101028Z 01001KT 22/21 A302 RMK A01 T02200205  RH  091%=      5-min Rain = 0
KMD1 101029Z 01001KT 22/21 A302 RMK A01 T02200205  RH  091%=      5-min Rain = 0
KMD1 101030Z 03001KT 22/21 A302 RMK A01 T02200205  RH  091%=      5-min Rain = 0
KMD1 101031Z 03002KT 22/21 A302 RMK A01 T02200205  RH  092%=      5-min Rain = 0
KMD1 101032Z 03002KT 22/21 A302 RMK A01 T02200206  RH  092%=      5-min Rain = 0
KMD1 101033Z 03002KT 22/21 A302 RMK A01 T02190206  RH  092%=      5-min Rain = 0
KMD1 101034Z 03003KT 22/21 A302 RMK A01 T02190206  RH  092%=      5-min Rain = 0
KMD1 101035Z 03002KT 22/21 A302 RMK A01 T02190206  RH  092%=      5-min Rain = 0
KMD1 101036Z 03003KT 22/21 A302 RMK A01 T02190206  RH  092%=      5-min Rain = 0
KMD1 101037Z 02003KT 22/21 A302 RMK A01 T02190206  RH  092%=      5-min Rain = 0
KMD1 101038Z 03003KT 22/21 A302 RMK A01 T02190206  RH  092%=      5-min Rain = 0
KMD1 101039Z 04002KT 22/21 A302 RMK A01 T02190205  RH  092%=      5-min Rain = 0
KMD1 101040Z 02002KT 22/21 A302 RMK A01 T02200205  RH  092%=      5-min Rain = 0
KMD1 101041Z 03002KT 22/21 A302 RMK A01 T02200206  RH  092%=      5-min Rain = 0
KMD1 101042Z 02002KT 22/21 A302 RMK A01 T02200207  RH  092%=      5-min Rain = 0
KMD1 101043Z 02002KT 22/21 A302 RMK A01 T02200207  RH  092%=      5-min Rain = 0
KMD1 101044Z 03002KT 22/21 A302 RMK A01 T02200207  RH  092%=      5-min Rain = 0
KMD1 101045Z 04002KT 22/21 A302 RMK A01 T02200207  RH  092%=      5-min Rain = 0
KMD1 101046Z 03003KT 22/21 A302 RMK A01 T02200206  RH  092%=      5-min Rain = 0
KMD1 101047Z 03002KT 22/21 A302 RMK A01 T02200206  RH  092%=      5-min Rain = 0
KMD1 101048Z 03002KT 22/21 A302 RMK A01 T02200205  RH  092%=      5-min Rain = 0
KMD1 101049Z 05002KT 22/21 A302 RMK A01 T02200206  RH  092%=      5-min Rain = 0
KMD1 101050Z 05002KT 22/21 A302 RMK A01 T02200206  RH  092%=      5-min Rain = 0
KMD1 101051Z 05002KT 22/21 A302 RMK A01 T02200206  RH  092%=      5-min Rain = 0
KMD1 101052Z 06002KT 22/21 A302 RMK A01 T02200206  RH  092%=      5-min Rain = 0
KMD1 101053Z 08002KT 22/21 A302 RMK A01 T02190206  RH  092%=      5-min Rain = 0
KMD1 101054Z 09002KT 22/21 A302 RMK A01 T02190206  RH  092%=      5-min Rain = 0
KMD1 101055Z 09002KT 22/21 A302 RMK A01 T02190207  RH  093%=      5-min Rain = 0
KMD1 101056Z 09002KT 22/21 A302 RMK A01 T02180206  RH  093%=      5-min Rain = 0
KMD1 101057Z 10002KT 22/21 A302 RMK A01 T02180206  RH  093%=      5-min Rain = 0
KMD1 101058Z 11003KT 22/21 A302 RMK A01 T02180206  RH  093%=      5-min Rain = 0
KMD1 101059Z 11002KT 22/21 A302 RMK A01 T02170205  RH  093%=      5-min Rain = 0
KMD1 101100Z 10003KT 22/21 A302 RMK A01 T02170205  RH  093%=      5-min Rain = 0
KMD1 101101Z 10003KT 22/21 A302 RMK A01 T02170205  RH  093%=      5-min Rain = 0
KMD1 101102Z 11003KT 22/21 A302 RMK A01 T02160205  RH  093%=      5-min Rain = 0
KMD1 101103Z 12003KT 22/21 A3021 RMK A01 T02160205  RH  094%=      5-min Rain = 0
KMD1 101104Z 13003KT 22/21 A3021 RMK A01 T02160205  RH  094%=      5-min Rain = 0
KMD1 101105Z 13003KT 22/21 A3021 RMK A01 T02150205  RH  094%=      5-min Rain = 0
KMD1 101106Z 12003KT 22/21 A3021 RMK A01 T02150205  RH  094%=      5-min Rain = 0
KMD1 101107Z 11003KT 22/21 A3021 RMK A01 T02150205  RH  094%=      5-min Rain = 0
KMD1 101108Z 12003KT 22/21 A3021 RMK A01 T02150205  RH  094%=      5-min Rain = 0
KMD1 101109Z 13003KT 21/21 A3021 RMK A01 T02140205  RH  094%=      5-min Rain = 0
KMD1 101110Z 13003KT 21/21 A3021 RMK A01 T02140205  RH  094%=      5-min Rain = 0
KMD1 101111Z 12002KT 21/21 A3021 RMK A01 T02140205  RH  094%=      5-min Rain = 0
KMD1 101112Z 12002KT 21/21 A3021 RMK A01 T02140205  RH  094%=      5-min Rain = 0
KMD1 101113Z 11002KT 21/21 A3021 RMK A01 T02140205  RH  094%=      5-min Rain = 0
KMD1 101114Z 12003KT 21/21 A3021 RMK A01 T02140205  RH  094%=      5-min Rain = 0
KMD1 101115Z 11003KT 21/20 A3021 RMK A01 T02140204  RH  094%=      5-min Rain = 0
KMD1 101116Z 11002KT 21/21 A3021 RMK A01 T02140205  RH  094%=      5-min Rain = 0
KMD1 101117Z 10002KT 21/20 A3021 RMK A01 T02140204  RH  094%=      5-min Rain = 0
KMD1 101118Z 11002KT 21/21 A3021 RMK A01 T02140205  RH  095%=      5-min Rain = 0
KMD1 101119Z 10002KT 21/21 A3021 RMK A01 T02140205  RH  095%=      5-min Rain = 0
KMD1 101120Z 11002KT 21/20 A3021 RMK A01 T02140204  RH  094%=      5-min Rain = 0
KMD1 101121Z 10002KT 21/20 A3021 RMK A01 T02130204  RH  094%=      5-min Rain = 0
KMD1 101122Z 10002KT 21/20 A3021 RMK A01 T02130204  RH  094%=      5-min Rain = 0
KMD1 101123Z 10002KT 21/20 A3021 RMK A01 T02130204  RH  094%=      5-min Rain = 0
KMD1 101124Z 10003KT 21/20 A3021 RMK A01 T02130204  RH  094%=      5-min Rain = 0
KMD1 101125Z 10003KT 21/20 A3021 RMK A01 T02130204  RH  094%=      5-min Rain = 0
KMD1 101126Z 10002KT 21/20 A3021 RMK A01 T02130203  RH  094%=      5-min Rain = 0
KMD1 101127Z 09002KT 21/20 A3021 RMK A01 T02130203  RH  094%=      5-min Rain = 0
KMD1 101128Z 10002KT 21/20 A3021 RMK A01 T02130204  RH  094%=      5-min Rain = 0
KMD1 101129Z 09002KT 21/20 A3021 RMK A01 T02130203  RH  094%=      5-min Rain = 0
KMD1 101130Z 09002KT 21/20 A3021 RMK A01 T02130204  RH  095%=      5-min Rain = 0
KMD1 101131Z 10002KT 21/20 A3021 RMK A01 T02130204  RH  095%=      5-min Rain = 0
KMD1 101132Z 10003KT 21/20 A3021 RMK A01 T02130204  RH  095%=      5-min Rain = 0
KMD1 101133Z 10003KT 21/20 A3021 RMK A01 T02130204  RH  095%=      5-min Rain = 0
KMD1 101134Z 11003KT 21/21 A3021 RMK A01 T02130205  RH  095%=      5-min Rain = 0
KMD1 101135Z 11003KT 21/20 A3021 RMK A01 T02120204  RH  095%=      5-min Rain = 0
KMD1 101136Z 11003KT 21/20 A3021 RMK A01 T02120204  RH  095%=      5-min Rain = 0
KMD1 101137Z 11003KT 21/20 A3021 RMK A01 T02120204  RH  095%=      5-min Rain = 0
KMD1 101138Z 12003KT 21/20 A3021 RMK A01 T02120203  RH  095%=      5-min Rain = 0
KMD1 101139Z 12003KT 21/20 A3021 RMK A01 T02110203  RH  095%=      5-min Rain = 0
KMD1 101140Z 12003KT 21/20 A3021 RMK A01 T02120203  RH  095%=      5-min Rain = 0
KMD1 101141Z 12003KT 21/20 A3021 RMK A01 T02120204  RH  095%=      5-min Rain = 0
KMD1 101142Z 12003KT 21/20 A3021 RMK A01 T02110203  RH  095%=      5-min Rain = 0
KMD1 101143Z 12003KT 21/20 A3021 RMK A01 T02110203  RH  095%=      5-min Rain = 0
KMD1 101144Z 12003KT 21/20 A3021 RMK A01 T02110203  RH  095%=      5-min Rain = 0
KMD1 101145Z 12003KT 21/20 A3021 RMK A01 T02110203  RH  095%=      5-min Rain = 0
KMD1 101146Z 11003KT 21/20 A3021 RMK A01 T02110204  RH  095%=      5-min Rain = 0
KMD1 101147Z 12003KT 21/20 A3021 RMK A01 T02110204  RH  095%=      5-min Rain = 0
KMD1 101148Z 12003KT 21/20 A3021 RMK A01 T02110203  RH  096%=      5-min Rain = 0
KMD1 101149Z 12003KT 21/20 A3021 RMK A01 T02100203  RH  096%=      5-min Rain = 0
KMD1 101150Z 12003KT 21/20 A3022 RMK A01 T02110203  RH  096%=      5-min Rain = 0
KMD1 101151Z 12003KT 21/20 A3022 RMK A01 T02100203  RH  096%=      5-min Rain = 0
KMD1 101152Z 12003KT 21/20 A3022 RMK A01 T02100203  RH  096%=      5-min Rain = 0
KMD1 101153Z 11003KT 21/20 A3022 RMK A01 T02100203  RH  096%=      5-min Rain = 0
KMD1 101154Z 12004KT 21/20 A3022 RMK A01 T02100203  RH  096%=      5-min Rain = 0
KMD1 101155Z 12004KT 21/20 A3022 RMK A01 T02100204  RH  096%=      5-min Rain = 0
KMD1 101156Z 12004KT 21/20 A3022 RMK A01 T02100204  RH  096%=      5-min Rain = 0
KMD1 101157Z 12004KT 21/20 A3022 RMK A01 T02100204  RH  096%=      5-min Rain = 0
KMD1 101158Z 12004KT 21/20 A3022 RMK A01 T02100204  RH  096%=      5-min Rain = 0
KMD1 101159Z 12004KT 21/20 A3022 RMK A01 T02100204  RH  096%=      5-min Rain = 0
KMD1 101200Z 12004KT 21/20 A3022 RMK A01 T02100204  RH  096%=      5-min Rain = 0
KMD1 101201Z 12004KT 21/20 A3022 RMK A01 T02100204  RH  096%=      5-min Rain = 0
KMD1 101202Z 12004KT 21/20 A3022 RMK A01 T02110204  RH  096%=      5-min Rain = 0
KMD1 101203Z 13004KT 21/20 A3022 RMK A01 T02110204  RH  096%=      5-min Rain = 0
KMD1 101204Z 13004KT 21/20 A3022 RMK A01 T02110204  RH  096%=      5-min Rain = 0
KMD1 101205Z 13004KT 21/21 A3022 RMK A01 T02110205  RH  096%=      5-min Rain = 0
KMD1 101206Z 13003KT 21/20 A3022 RMK A01 T02110204  RH  096%=      5-min Rain = 0
KMD1 101207Z 13003KT 21/21 A3022 RMK A01 T02110205  RH  096%=      5-min Rain = 0
KMD1 101208Z 13003KT 21/21 A3022 RMK A01 T02110205  RH  096%=      5-min Rain = 0
KMD1 101209Z 13003KT 21/21 A3022 RMK A01 T02110205  RH  096%=      5-min Rain = 0
KMD1 101210Z 12003KT 21/21 A3022 RMK A01 T02120205  RH  096%=      5-min Rain = 0
KMD1 101211Z 12003KT 21/21 A3022 RMK A01 T02110205  RH  096%=      5-min Rain = 0
KMD1 101212Z 12002KT 21/21 A3022 RMK A01 T02120205  RH  096%=      5-min Rain = 0
KMD1 101213Z 12002KT 21/21 A3022 RMK A01 T02120205  RH  096%=      5-min Rain = 0
KMD1 101214Z 11002KT 21/21 A3022 RMK A01 T02120205  RH  096%=      5-min Rain = 0
KMD1 101215Z 11002KT 21/21 A3022 RMK A01 T02120205  RH  096%=      5-min Rain = 0
KMD1 101216Z 11002KT 21/21 A3022 RMK A01 T02120205  RH  096%=      5-min Rain = 0
KMD1 101217Z 12002KT 21/21 A3022 RMK A01 T02120205  RH  096%=      5-min Rain = 0
KMD1 101218Z 11001KT 21/21 A3022 RMK A01 T02130205  RH  096%=      5-min Rain = 0
KMD1 101219Z 11002KT 21/21 A3022 RMK A01 T02120205  RH  095%=      5-min Rain = 0
KMD1 101220Z 11002KT 21/21 A3022 RMK A01 T02130205  RH  095%=      5-min Rain = 0
KMD1 101221Z 11002KT 21/21 A3022 RMK A01 T02130205  RH  095%=      5-min Rain = 0
KMD1 101222Z 10001KT 21/21 A3022 RMK A01 T02130205  RH  095%=      5-min Rain = 0
KMD1 101223Z 10002KT 21/21 A3022 RMK A01 T02130205  RH  095%=      5-min Rain = 0
KMD1 101224Z 10002KT 21/21 A3022 RMK A01 T02140205  RH  095%=      5-min Rain = 0
KMD1 101225Z 11001KT 21/21 A3022 RMK A01 T02140205  RH  095%=      5-min Rain = 0
KMD1 101226Z 11001KT 21/21 A3022 RMK A01 T02140206  RH  095%=      5-min Rain = 0
KMD1 101227Z 12001KT 22/21 A3022 RMK A01 T02150206  RH  095%=      5-min Rain = 0
KMD1 101228Z 11001KT 22/21 A3022 RMK A01 T02150205  RH  094%=      5-min Rain = 0
KMD1 101229Z 11001KT 22/21 A3022 RMK A01 T02150205  RH  094%=      5-min Rain = 0
KMD1 101230Z 12001KT 22/21 A3022 RMK A01 T02150206  RH  094%=      5-min Rain = 0
KMD1 101231Z 12001KT 22/21 A3022 RMK A01 T02150205  RH  094%=      5-min Rain = 0
KMD1 101232Z 11001KT 22/21 A3022 RMK A01 T02150206  RH  094%=      5-min Rain = 0
KMD1 101233Z 12001KT 22/21 A3022 RMK A01 T02150206  RH  094%=      5-min Rain = 0
KMD1 101234Z 11001KT 22/21 A3022 RMK A01 T02160207  RH  095%=      5-min Rain = 0
KMD1 101235Z 10001KT 22/21 A3022 RMK A01 T02160206  RH  094%=      5-min Rain = 0
KMD1 101236Z 13002KT 22/21 A3023 RMK A01 T02160206  RH  094%=      5-min Rain = 0
KMD1 101237Z 12002KT 22/21 A3023 RMK A01 T02160206  RH  094%=      5-min Rain = 0
KMD1 101238Z 13002KT 22/21 A3023 RMK A01 T02160206  RH  094%=      5-min Rain = 0
KMD1 101239Z 13002KT 22/21 A3023 RMK A01 T02160206  RH  094%=      5-min Rain = 0
KMD1 101240Z 13002KT 22/21 A3023 RMK A01 T02160206  RH  094%=      5-min Rain = 0
KMD1 101241Z 13003KT 22/21 A3022 RMK A01 T02160205  RH  094%=      5-min Rain = 0
KMD1 101242Z 13003KT 22/21 A3023 RMK A01 T02170206  RH  094%=      5-min Rain = 0
KMD1 101243Z 13003KT 22/21 A3023 RMK A01 T02170206  RH  094%=      5-min Rain = 0
KMD1 101244Z 15003KT 22/21 A3023 RMK A01 T02170206  RH  094%=      5-min Rain = 0
KMD1 101245Z 14003KT 22/21 A3023 RMK A01 T02170206  RH  093%=      5-min Rain = 0
KMD1 101246Z 15004KT 22/21 A3023 RMK A01 T02180206  RH  093%=      5-min Rain = 0
KMD1 101247Z 15003KT 22/21 A3023 RMK A01 T02180206  RH  093%=      5-min Rain = 0
KMD1 101248Z 15004KT 22/21 A3023 RMK A01 T02180206  RH  093%=      5-min Rain = 0
KMD1 101249Z 15004KT 22/21 A3023 RMK A01 T02180206  RH  093%=      5-min Rain = 0
KMD1 101250Z 15004KT 22/21 A3023 RMK A01 T02180206  RH  093%=      5-min Rain = 0
KMD1 101251Z 15003KT 22/21 A3023 RMK A01 T02180206  RH  093%=      5-min Rain = 0
KMD1 101252Z 14003KT 22/21 A3023 RMK A01 T02190207  RH  093%=      5-min Rain = 0
KMD1 101253Z 15003KT 22/21 A3023 RMK A01 T02190207  RH  093%=      5-min Rain = 0
KMD1 101254Z 14003KT 22/21 A3023 RMK A01 T02190207  RH  093%=      5-min Rain = 0
KMD1 101255Z 14003KT 22/21 A3023 RMK A01 T02190208  RH  093%=      5-min Rain = 0
KMD1 101256Z 15003KT 22/21 A3023 RMK A01 T02190207  RH  093%=      5-min Rain = 0
KMD1 101257Z 14003KT 22/21 A3023 RMK A01 T02190207  RH  093%=      5-min Rain = 0
KMD1 101258Z 15003KT 22/21 A3023 RMK A01 T02190206  RH  092%=      5-min Rain = 0
KMD1 101259Z 14002KT 22/21 A3023 RMK A01 T02190206  RH  092%=      5-min Rain = 0
KMD1 101300Z 14002KT 22/21 A3023 RMK A01 T02190206  RH  092%=      5-min Rain = 0
KMD1 101301Z 14002KT 22/21 A3023 RMK A01 T02190206  RH  092%=      5-min Rain = 0
KMD1 101302Z 15002KT 22/21 A3023 RMK A01 T02200206  RH  092%=      5-min Rain = 0
KMD1 101303Z 14002KT 22/21 A3023 RMK A01 T02200206  RH  092%=      5-min Rain = 0
KMD1 101304Z 14002KT 22/21 A3023 RMK A01 T02210207  RH  092%=      5-min Rain = 0
KMD1 101305Z 14001KT 22/21 A3023 RMK A01 T02200206  RH  092%=      5-min Rain = 0
KMD1 101306Z 16001KT 22/21 A3023 RMK A01 T02210207  RH  092%=      5-min Rain = 0
KMD1 101307Z 16002KT 22/21 A3023 RMK A01 T02210207  RH  091%=      5-min Rain = 0
KMD1 101308Z 13001KT 22/21 A3023 RMK A01 T02210207  RH  092%=      5-min Rain = 0
KMD1 101309Z 14001KT 22/21 A3023 RMK A01 T02220207  RH  091%=      5-min Rain = 0
KMD1 101310Z 15001KT 22/21 A3023 RMK A01 T02220206  RH  091%=      5-min Rain = 0
KMD1 101311Z 15001KT 22/21 A3023 RMK A01 T02220207  RH  091%=      5-min Rain = 0
KMD1 101312Z 17001KT 22/21 A3023 RMK A01 T02220207  RH  091%=      5-min Rain = 0
KMD1 101313Z 17001KT 22/21 A3023 RMK A01 T02230208  RH  092%=      5-min Rain = 0
KMD1 101314Z 17002KT 22/21 A3023 RMK A01 T02230208  RH  091%=      5-min Rain = 0
KMD1 101315Z 18002KT 22/21 A3023 RMK A01 T02230208  RH  091%=      5-min Rain = 0
KMD1 101316Z 17002KT 22/21 A3023 RMK A01 T02230208  RH  091%=      5-min Rain = 0
KMD1 101317Z 18003KT 22/21 A3023 RMK A01 T02230208  RH  091%=      5-min Rain = 0
KMD1 101318Z 19003KT 22/21 A3023 RMK A01 T02230207  RH  091%=      5-min Rain = 0
KMD1 101319Z 18004KT 22/21 A3023 RMK A01 T02230207  RH  090%=      5-min Rain = 0
KMD1 101320Z 19004KT 22/21 A3023 RMK A01 T02230206  RH  090%=      5-min Rain = 0
KMD1 101321Z 19004KT 22/21 A3023 RMK A01 T02240206  RH  090%=      5-min Rain = 0
KMD1 101322Z 18003KT 22/21 A3023 RMK A01 T02240207  RH  090%=      5-min Rain = 0
KMD1 101323Z 19003KT 23/21 A3023 RMK A01 T02250207  RH  089%=      5-min Rain = 0
KMD1 101324Z 19003KT 23/21 A3023 RMK A01 T02250206  RH  089%=      5-min Rain = 0
KMD1 101325Z 19003KT 23/21 A3023 RMK A01 T02250207  RH  089%=      5-min Rain = 0
KMD1 101326Z 19005KT 23/21 A3023 RMK A01 T02260205  RH  088%=      5-min Rain = 0
KMD1 101327Z 18004KT 23/21 A3023 RMK A01 T02260205  RH  088%=      5-min Rain = 0
KMD1 101328Z 18004KT 23/21 A3023 RMK A01 T02260205  RH  088%=      5-min Rain = 0
KMD1 101329Z 17004KT 23/21 A3023 RMK A01 T02260205  RH  088%=      5-min Rain = 0
KMD1 101330Z 18005KT 23/21 A3024 RMK A01 T02260207  RH  089%=      5-min Rain = 0
KMD1 101331Z 18004KT 23/21 A3024 RMK A01 T02260205  RH  087%=      5-min Rain = 0
KMD1 101332Z 18004KT 23/21 A3024 RMK A01 T02260205  RH  088%=      5-min Rain = 0
KMD1 101333Z 18005KT 23/21 A3024 RMK A01 T02260205  RH  088%=      5-min Rain = 0
KMD1 101334Z 18004KT 23/21 A3024 RMK A01 T02260205  RH  088%=      5-min Rain = 0
KMD1 101335Z 18005KT 23/20 A3024 RMK A01 T02260204  RH  087%=      5-min Rain = 0
KMD1 101336Z 19004KT 23/20 A3024 RMK A01 T02270203  RH  087%=      5-min Rain = 0
KMD1 101337Z 19004KT 23/20 A3024 RMK A01 T02270204  RH  087%=      5-min Rain = 0
KMD1 101338Z 20005KT 23/20 A3024 RMK A01 T02280204  RH  087%=      5-min Rain = 0
KMD1 101339Z 21006KT 23/20 A3024 RMK A01 T02280204  RH  086%=      5-min Rain = 0
KMD1 101340Z 20005KT 23/20 A3024 RMK A01 T02270203  RH  086%=      5-min Rain = 0
KMD1 101341Z 19005KT 23/20 A3024 RMK A01 T02270203  RH  086%=      5-min Rain = 0
KMD1 101342Z 19007KT 23/20 A3024 RMK A01 T02280203  RH  086%=      5-min Rain = 0
KMD1 101343Z 20006KT 23/20 A3024 RMK A01 T02280202  RH  085%=      5-min Rain = 0
KMD1 101344Z 20006KT 23/20 A3024 RMK A01 T02280201  RH  085%=      5-min Rain = 0
KMD1 101345Z 19004KT 23/20 A3024 RMK A01 T02280202  RH  085%=      5-min Rain = 0
KMD1 101346Z 19005KT 23/20 A3024 RMK A01 T02280203  RH  086%=      5-min Rain = 0
KMD1 101347Z 19005KT 23/20 A3024 RMK A01 T02290203  RH  085%=      5-min Rain = 0
KMD1 101348Z 19005KT 23/20 A3024 RMK A01 T02290202  RH  085%=      5-min Rain = 0
KMD1 101349Z 21004KT 23/20 A3024 RMK A01 T02290203  RH  085%=      5-min Rain = 0
KMD1 101350Z 19004KT 23/20 A3024 RMK A01 T02290204  RH  085%=      5-min Rain = 0
KMD1 101351Z 18005KT 23/20 A3024 RMK A01 T02300203  RH  085%=      5-min Rain = 0
KMD1 101352Z 18004KT 23/20 A3024 RMK A01 T02300202  RH  084%=      5-min Rain = 0
KMD1 101353Z 18004KT 23/20 A3024 RMK A01 T02300202  RH  084%=      5-min Rain = 0
KMD1 101354Z 20005KT 23/20 A3024 RMK A01 T02300203  RH  084%=      5-min Rain = 0
KMD1 101355Z 20005KT 23/20 A3024 RMK A01 T02300201  RH  084%=      5-min Rain = 0
KMD1 101356Z 20005KT 23/20 A3024 RMK A01 T02300201  RH  083%=      5-min Rain = 0
KMD1 101357Z 19005KT 23/20 A3024 RMK A01 T02300201  RH  084%=      5-min Rain = 0
KMD1 101358Z 19005KT 23/20 A3024 RMK A01 T02300201  RH  084%=      5-min Rain = 0
KMD1 101359Z 19007KT 23/20 A3024 RMK A01 T02300200  RH  083%=      5-min Rain = 0
KMD1 101400Z 19006KT 23/20 A3024 RMK A01 T02300200  RH  083%=      5-min Rain = 0
KMD1 101401Z 19006KT 23/20 A3024 RMK A01 T02310201  RH  083%=      5-min Rain = 0
KMD1 101402Z 20006KT 23/20 A3024 RMK A01 T02310201  RH  083%=      5-min Rain = 0
KMD1 101403Z 20005KT 23/20 A3024 RMK A01 T02320202  RH  083%=      5-min Rain = 0
KMD1 101404Z 19006KT 23/20 A3024 RMK A01 T02320201  RH  083%=      5-min Rain = 0
KMD1 101405Z 18006KT 23/20 A3024 RMK A01 T02320200  RH  082%=      5-min Rain = 0
KMD1 101406Z 20005KT 23/20 A3024 RMK A01 T02320201  RH  083%=      5-min Rain = 0
KMD1 101407Z 21004KT 23/20 A3024 RMK A01 T02320202  RH  083%=      5-min Rain = 0
KMD1 101408Z 20005KT 23/20 A3024 RMK A01 T02330201  RH  083%=      5-min Rain = 0
KMD1 101409Z 21006KT 23/20 A3024 RMK A01 T02330201  RH  082%=      5-min Rain = 0
KMD1 101410Z 20006KT 23/20 A3024 RMK A01 T02340201  RH  082%=      5-min Rain = 0
KMD1 101411Z 21004KT 23/20 A3024 RMK A01 T02340201  RH  082%=      5-min Rain = 0
KMD1 101412Z 21005KT 23/20 A3024 RMK A01 T02340203  RH  083%=      5-min Rain = 0
KMD1 101413Z 21004KT 24/20 A3024 RMK A01 T02350202  RH  082%=      5-min Rain = 0
KMD1 101414Z 20005KT 24/20 A3024 RMK A01 T02360201  RH  081%=      5-min Rain = 0
KMD1 101415Z 19006KT 24/20 A3024 RMK A01 T02360199  RH  080%=      5-min Rain = 0
KMD1 101416Z 20005KT 24/20 A3024 RMK A01 T02360201  RH  081%=      5-min Rain = 0
KMD1 101417Z 19006KT 24/20 A3024 RMK A01 T02360201  RH  080%=      5-min Rain = 0
KMD1 101418Z 18006KT 24/20 A3024 RMK A01 T02370201  RH  080%=      5-min Rain = 0
KMD1 101419Z 21006KT 24/20 A3024 RMK A01 T02370199  RH  079%=      5-min Rain = 0
KMD1 101420Z 19006KT 24/20 A3024 RMK A01 T02380199  RH  079%=      5-min Rain = 0
KMD1 101421Z 18007KT 24/20 A3024 RMK A01 T02380199  RH  078%=      5-min Rain = 0
KMD1 101422Z 20006KT 24/20 A3024 RMK A01 T02400198  RH  077%=      5-min Rain = 0
KMD1 101423Z 21005KT 24/20 A3024 RMK A01 T02400200  RH  078%=      5-min Rain = 0
KMD1 101424Z 18005KT 24/20 A3024 RMK A01 T02410201  RH  078%=      5-min Rain = 0
KMD1 101425Z 18006KT 24/20 A3024 RMK A01 T02410200  RH  078%=      5-min Rain = 0
KMD1 101426Z 19005KT 24/20 A3024 RMK A01 T02420200  RH  078%=      5-min Rain = 0
KMD1 101427Z 19006KT 24/20 A3024 RMK A01 T02430199  RH  076%=      5-min Rain = 0
KMD1 101428Z 18005KT 24/20 A3024 RMK A01 T02430200  RH  077%=      5-min Rain = 0
KMD1 101429Z 18007KT 25/20 A3024 RMK A01 T02450198  RH  075%=      5-min Rain = 0
KMD1 101430Z 19007KT 25/20 A3024 RMK A01 T02460197  RH  074%=      5-min Rain = 0
KMD1 101431Z 19006KT 25/20 A3024 RMK A01 T02460198  RH  075%=      5-min Rain = 0
KMD1 101432Z 19005KT 25/20 A3024 RMK A01 T02480200  RH  074%=      5-min Rain = 0
KMD1 101433Z 20006KT 25/20 A3024 RMK A01 T02510199  RH  073%=      5-min Rain = 0
KMD1 101434Z 19006KT 25/20 A3024 RMK A01 T02520200  RH  073%=      5-min Rain = 0
KMD1 101435Z 19007KT 25/20 A3024 RMK A01 T02510197  RH  072%=      5-min Rain = 0
KMD1 101436Z 18008KT 25/20 A3024 RMK A01 T02500196  RH  072%=      5-min Rain = 0
KMD1 101437Z 18009KT 25/20 A3024 RMK A01 T02500195  RH  072%=      5-min Rain = 0
KMD1 101438Z 17008KT 25/20 A3024 RMK A01 T02500196  RH  072%=      5-min Rain = 0
KMD1 101439Z 18008KT 25/20 A3024 RMK A01 T02490195  RH  072%=      5-min Rain = 0
KMD1 101440Z 18008KT 25/19 A3024 RMK A01 T02480193  RH  071%=      5-min Rain = 0
KMD1 101441Z 19007KT 25/19 A3024 RMK A01 T02470193  RH  072%=      5-min Rain = 0
KMD1 101442Z 20006KT 25/20 A3024 RMK A01 T02470196  RH  073%=      5-min Rain = 0
KMD1 101443Z 18006KT 25/20 A3024 RMK A01 T02490196  RH  072%=      5-min Rain = 0
KMD1 101444Z 18006KT 25/20 A3024 RMK A01 T02510197  RH  072%=      5-min Rain = 0
KMD1 101445Z 20006KT 25/19 A3024 RMK A01 T02530194  RH  070%=      5-min Rain = 0
KMD1 101446Z 21007KT 25/19 A3024 RMK A01 T02520192  RH  069%=      5-min Rain = 0
KMD1 101447Z 19006KT 25/19 A3024 RMK A01 T02520192  RH  069%=      5-min Rain = 0
KMD1 101448Z 20007KT 25/19 A3024 RMK A01 T02540193  RH  069%=      5-min Rain = 0
KMD1 101449Z 20007KT 26/19 A3024 RMK A01 T02550190  RH  067%=      5-min Rain = 0
KMD1 101450Z 20006KT 26/19 A3024 RMK A01 T02550191  RH  068%=      5-min Rain = 0
KMD1 101451Z 20008KT 26/19 A3024 RMK A01 T02550190  RH  067%=      5-min Rain = 0
KMD1 101452Z 20008KT 26/19 A3024 RMK A01 T02550188  RH  067%=      5-min Rain = 0
KMD1 101453Z 21008KT 25/19 A3024 RMK A01 T02530189  RH  068%=      5-min Rain = 0
KMD1 101454Z 21007KT 25/19 A3024 RMK A01 T02540188  RH  067%=      5-min Rain = 0
KMD1 101455Z 20008KT 25/19 A3024 RMK A01 T02540189  RH  067%=      5-min Rain = 0
KMD1 101456Z 20007KT 26/19 A3024 RMK A01 T02550190  RH  068%=      5-min Rain = 0
KMD1 101457Z 21006KT 25/19 A3024 RMK A01 T02540189  RH  068%=      5-min Rain = 0
KMD1 101458Z 22006KT 25/19 A3024 RMK A01 T02540187  RH  066%=      5-min Rain = 0
KMD1 101459Z 22008KT 26/19 A3024 RMK A01 T02550187  RH  066%=      5-min Rain = 0
KMD1 101500Z 21008KT 26/19 A3023 RMK A01 T02550190  RH  067%=      5-min Rain = 0
KMD1 101501Z 21007KT 26/19 A3024 RMK A01 T02550189  RH  067%=      5-min Rain = 0
KMD1 101502Z 20007KT 26/19 A3024 RMK A01 T02550187  RH  066%=      5-min Rain = 0
KMD1 101503Z 20005KT 26/19 A3024 RMK A01 T02560190  RH  067%=      5-min Rain = 0
KMD1 101504Z 21007KT 26/19 A3024 RMK A01 T02590192  RH  067%=      5-min Rain = 0
KMD1 101505Z 21005KT 26/19 A3024 RMK A01 T02600192  RH  066%=      5-min Rain = 0
KMD1 101506Z 20005KT 26/19 A3024 RMK A01 T02610193  RH  066%=      5-min Rain = 0
KMD1 101507Z 21007KT 26/19 A3024 RMK A01 T02610192  RH  066%=      5-min Rain = 0
KMD1 101508Z 21007KT 26/19 A3024 RMK A01 T02610188  RH  064%=      5-min Rain = 0
KMD1 101509Z 20005KT 26/19 A3024 RMK A01 T02590188  RH  065%=      5-min Rain = 0
KMD1 101510Z 21007KT 26/19 A3024 RMK A01 T02580190  RH  066%=      5-min Rain = 0
KMD1 101511Z 20007KT 26/19 A3024 RMK A01 T02580190  RH  066%=      5-min Rain = 0
KMD1 101512Z 22007KT 26/19 A3024 RMK A01 T02580188  RH  065%=      5-min Rain = 0
KMD1 101513Z 20006KT 26/19 A3024 RMK A01 T02570187  RH  065%=      5-min Rain = 0
KMD1 101514Z 19005KT 26/19 A3024 RMK A01 T02570189  RH  066%=      5-min Rain = 0
KMD1 101515Z 19007KT 26/19 A3024 RMK A01 T02580191  RH  066%=      5-min Rain = 0
KMD1 101516Z 20006KT 26/19 A3024 RMK A01 T02590188  RH  065%=      5-min Rain = 0
KMD1 101517Z 21004KT 26/19 A3023 RMK A01 T02600190  RH  065%=      5-min Rain = 0
KMD1 101518Z 18004KT 26/19 A3023 RMK A01 T02610192  RH  066%=      5-min Rain = 0
KMD1 101519Z 17009KT 26/19 A3023 RMK A01 T02640189  RH  063%=      5-min Rain = 0
KMD1 101520Z 17009KT 27/18 A3023 RMK A01 T02660184  RH  061%=      5-min Rain = 0
KMD1 101521Z 18009KT 27/18 A3023 RMK A01 T02660180  RH  059%=      5-min Rain = 0
KMD1 101522Z 19009KT 26/18 A3023 RMK A01 T02640182  RH  061%=      5-min Rain = 0
KMD1 101523Z 19006KT 27/18 A3023 RMK A01 T02650180  RH  060%=      5-min Rain = 0
KMD1 101524Z 19007KT 27/18 A3023 RMK A01 T02650180  RH  059%=      5-min Rain = 0
KMD1 101525Z 18008KT 27/18 A3023 RMK A01 T02650182  RH  060%=      5-min Rain = 0
KMD1 101526Z 19007KT 27/18 A3023 RMK A01 T02660183  RH  060%=      5-min Rain = 0
KMD1 101527Z 19006KT 27/18 A3023 RMK A01 T02660183  RH  060%=      5-min Rain = 0
KMD1 101528Z 18005KT 27/18 A3023 RMK A01 T02680183  RH  060%=      5-min Rain = 0
KMD1 101529Z 18005KT 27/18 A3023 RMK A01 T02720184  RH  059%=      5-min Rain = 0
KMD1 101530Z 19003KT 27/19 A3023 RMK A01 T02730185  RH  059%=      5-min Rain = 0
KMD1 101531Z 17006KT 28/18 A3023 RMK A01 T02750184  RH  058%=      5-min Rain = 0
KMD1 101532Z 20006KT 28/18 A3023 RMK A01 T02750184  RH  057%=      5-min Rain = 0
KMD1 101533Z 21006KT 27/18 A3023 RMK A01 T02740181  RH  057%=      5-min Rain = 0
KMD1 101534Z 22006KT 27/18 A3023 RMK A01 T02730184  RH  058%=      5-min Rain = 0
KMD1 101535Z 22009KT 27/18 A3022 RMK A01 T02730183  RH  058%=      5-min Rain = 0
KMD1 101536Z 19007KT 27/18 A3023 RMK A01 T02730181  RH  057%=      5-min Rain = 0
KMD1 101537Z 18005KT 27/18 A3023 RMK A01 T02740180  RH  057%=      5-min Rain = 0
KMD1 101538Z 18005KT 27/18 A3023 RMK A01 T02740181  RH  057%=      5-min Rain = 0
KMD1 101539Z 18009KT 28/18 A3023 RMK A01 T02770183  RH  057%=      5-min Rain = 0
KMD1 101540Z 19007KT 28/18 A3023 RMK A01 T02790181  RH  055%=      5-min Rain = 0
KMD1 101541Z 19004KT 28/18 A3023 RMK A01 T02790178  RH  054%=      5-min Rain = 0
KMD1 101542Z 19005KT 28/18 A3023 RMK A01 T02780182  RH  056%=      5-min Rain = 0
KMD1 101543Z 19004KT 28/18 A3022 RMK A01 T02770181  RH  056%=      5-min Rain = 0
KMD1 101544Z 17003KT 28/18 A3022 RMK A01 T02770181  RH  056%=      5-min Rain = 0
KMD1 101545Z 19006KT 28/19 A3022 RMK A01 T02800185  RH  056%=      5-min Rain = 0
KMD1 101546Z 20006KT 28/19 A3022 RMK A01 T02830185  RH  055%=      5-min Rain = 0
KMD1 101547Z 19005KT 28/18 A3022 RMK A01 T02840184  RH  055%=      5-min Rain = 0
KMD1 101548Z 19007KT 28/18 A3022 RMK A01 T02840182  RH  054%=      5-min Rain = 0
KMD1 101549Z 19008KT 29/18 A3022 RMK A01 T02850179  RH  053%=      5-min Rain = 0
KMD1 101550Z 19006KT 29/18 A3022 RMK A01 T02850179  RH  053%=      5-min Rain = 0
KMD1 101551Z 20006KT 29/18 A3022 RMK A01 T02850176  RH  052%=      5-min Rain = 0
KMD1 101552Z 17009KT 29/18 A3022 RMK A01 T02850176  RH  051%=      5-min Rain = 0
KMD1 101553Z 17010KT 29/17 A3022 RMK A01 T02870172  RH  050%=      5-min Rain = 0
KMD1 101554Z 17009KT 29/17 A3022 RMK A01 T02890172  RH  049%=      5-min Rain = 0
KMD1 101555Z 17009KT 29/17 A3023 RMK A01 T02900174  RH  050%=      5-min Rain = 0
KMD1 101556Z 18008KT 29/18 A3023 RMK A01 T02900176  RH  050%=      5-min Rain = 0
KMD1 101557Z 18007KT 29/18 A3022 RMK A01 T02910175  RH  050%=      5-min Rain = 0
KMD1 101558Z 18011KT 29/18 A3022 RMK A01 T02900176  RH  050%=      5-min Rain = 0
KMD1 101559Z 19010KT 29/18 A3022 RMK A01 T02890175  RH  050%=      5-min Rain = 0
KMD1 101600Z 18008KT 29/17 A3022 RMK A01 T02890173  RH  049%=      5-min Rain = 0
KMD1 101601Z 16010KT 29/17 A3022 RMK A01 T02880173  RH  050%=      5-min Rain = 0
KMD1 101602Z 16010KT 29/17 A3022 RMK A01 T02880171  RH  049%=      5-min Rain = 0
KMD1 101603Z 18008KT 29/17 A3022 RMK A01 T02880174  RH  050%=      5-min Rain = 0
KMD1 101604Z 19007KT 29/17 A3022 RMK A01 T02880173  RH  050%=      5-min Rain = 0
KMD1 101605Z 17009G14KT 29/18 A3022 RMK A01 T02880175  RH  050%=      5-min Rain = 0
KMD1 101606Z 18011KT 29/17 A3022 RMK A01 T02890169  RH  048%=      5-min Rain = 0
KMD1 101607Z 18009KT 29/17 A3022 RMK A01 T02890168  RH  048%=      5-min Rain = 0
KMD1 101608Z 18008KT 29/17 A3022 RMK A01 T02880171  RH  049%=      5-min Rain = 0
KMD1 101609Z 19008KT 29/17 A3022 RMK A01 T02870170  RH  049%=      5-min Rain = 0
KMD1 101610Z 20005KT 29/17 A3022 RMK A01 T02870169  RH  049%=      5-min Rain = 0
KMD1 101611Z 19004KT 29/17 A3022 RMK A01 T02860174  RH  051%=      5-min Rain = 0
KMD1 101612Z 15006KT 29/17 A3022 RMK A01 T02890172  RH  049%=      5-min Rain = 0
KMD1 101613Z 17009KT 29/17 A3022 RMK A01 T02920171  RH  048%=      5-min Rain = 0
KMD1 101614Z 17007KT 30/17 A3022 RMK A01 T02950170  RH  047%=      5-min Rain = 0
KMD1 101615Z 16010KT 29/17 A3022 RMK A01 T02940171  RH  047%=      5-min Rain = 0
KMD1 101616Z 17008KT 29/17 A3022 RMK A01 T02930171  RH  048%=      5-min Rain = 0
KMD1 101617Z 17008KT 29/17 A3022 RMK A01 T02930172  RH  048%=      5-min Rain = 0
KMD1 101618Z 18005KT 29/17 A3022 RMK A01 T02930170  RH  047%=      5-min Rain = 0
KMD1 101619Z 19007KT 29/17 A3022 RMK A01 T02940172  RH  048%=      5-min Rain = 0
KMD1 101620Z 19009KT 30/17 A3022 RMK A01 T02950168  RH  046%=      5-min Rain = 0
KMD1 101621Z 19007KT 29/17 A3022 RMK A01 T02930168  RH  047%=      5-min Rain = 0
KMD1 101622Z 17008KT 29/17 A3022 RMK A01 T02930172  RH  048%=      5-min Rain = 0
KMD1 101623Z 18009KT 30/17 A3022 RMK A01 T02950170  RH  047%=      5-min Rain = 0
KMD1 101624Z 17011KT 30/16 A3022 RMK A01 T02970164  RH  045%=      5-min Rain = 0
KMD1 101625Z 17007KT 30/16 A3022 RMK A01 T02960163  RH  045%=      5-min Rain = 0
KMD1 101626Z 18010KT 30/17 A3022 RMK A01 T02950165  RH  045%=      5-min Rain = 0
KMD1 101627Z 18010KT 30/17 A3022 RMK A01 T02960167  RH  046%=      5-min Rain = 0
KMD1 101628Z 17008KT 30/16 A3022 RMK A01 T02980164  RH  044%=      5-min Rain = 0
KMD1 101629Z 19005KT 30/16 A3022 RMK A01 T02980163  RH  044%=      5-min Rain = 0
KMD1 101630Z 18006KT 30/16 A3022 RMK A01 T02990163  RH  044%=      5-min Rain = 0
KMD1 101631Z 16008G13KT 30/16 A3022 RMK A01 T02990164  RH  044%=      5-min Rain = 0
KMD1 101632Z 17008KT 30/16 A3022 RMK A01 T02980161  RH  044%=      5-min Rain = 0
KMD1 101633Z 18008G13KT 30/16 A3022 RMK A01 T02980162  RH  044%=      5-min Rain = 0
KMD1 101634Z 19011KT 30/16 A3022 RMK A01 T02990157  RH  042%=      5-min Rain = 0
KMD1 101635Z 19008KT 30/16 A3022 RMK A01 T03010159  RH  042%=      5-min Rain = 0
KMD1 101636Z 20010KT 30/16 A3022 RMK A01 T03040160  RH  042%=      5-min Rain = 0
KMD1 101637Z 19009KT 30/15 A3022 RMK A01 T03040154  RH  040%=      5-min Rain = 0
KMD1 101638Z 19008KT 30/15 A3022 RMK A01 T03010154  RH  041%=      5-min Rain = 0
KMD1 101639Z 19009KT 30/16 A3022 RMK A01 T03000158  RH  042%=      5-min Rain = 0
KMD1 101640Z 18007KT 30/16 A3022 RMK A01 T03000158  RH  042%=      5-min Rain = 0
KMD1 101641Z 19009KT 30/16 A3022 RMK A01 T03010156  RH  042%=      5-min Rain = 0
KMD1 101642Z 20009KT 30/16 A3022 RMK A01 T03010156  RH  042%=      5-min Rain = 0
KMD1 101643Z 20006KT 30/16 A3022 RMK A01 T03020158  RH  042%=      5-min Rain = 0
KMD1 101644Z 20004KT 30/16 A3022 RMK A01 T03030158  RH  042%=      5-min Rain = 0
KMD1 101645Z 18005KT 30/16 A3022 RMK A01 T03030161  RH  042%=      5-min Rain = 0
KMD1 101646Z 16008KT 30/16 A3022 RMK A01 T03040160  RH  042%=      5-min Rain = 0
KMD1 101647Z 18008KT 30/16 A3022 RMK A01 T03040162  RH  042%=      5-min Rain = 0
KMD1 101648Z 20005KT 30/16 A3022 RMK A01 T03040160  RH  042%=      5-min Rain = 0
KMD1 101649Z 19006KT 30/16 A3022 RMK A01 T03040158  RH  041%=      5-min Rain = 0
KMD1 101650Z 19007KT 30/16 A3022 RMK A01 T03040158  RH  041%=      5-min Rain = 0
KMD1 101651Z 19010KT 30/15 A3022 RMK A01 T03030153  RH  040%=      5-min Rain = 0
KMD1 101652Z 19010KT 30/15 A3022 RMK A01 T03030150  RH  039%=      5-min Rain = 0
KMD1 101653Z 18009KT 30/15 A3022 RMK A01 T03020154  RH  041%=      5-min Rain = 0
KMD1 101654Z 20006KT 30/15 A3022 RMK A01 T03010154  RH  041%=      5-min Rain = 0
KMD1 101655Z 20006KT 30/16 A3022 RMK A01 T03010156  RH  042%=      5-min Rain = 0
KMD1 101656Z 20007KT 30/15 A3022 RMK A01 T03020153  RH  040%=      5-min Rain = 0
KMD1 101657Z 21007KT 30/15 A3022 RMK A01 T03040150  RH  039%=      5-min Rain = 0
KMD1 101658Z 21008KT 31/15 A3022 RMK A01 T03050152  RH  039%=      5-min Rain = 0
KMD1 101659Z 20011KT 31/15 A3022 RMK A01 T03060148  RH  038%=      5-min Rain = 0
KMD1 101700Z 21008KT 31/14 A3022 RMK A01 T03050142  RH  037%=      5-min Rain = 0
KMD1 101701Z 19009KT 30/15 A3022 RMK A01 T03040146  RH  038%=      5-min Rain = 0
KMD1 101702Z 18009KT 30/15 A3022 RMK A01 T03040148  RH  039%=      5-min Rain = 0
KMD1 101703Z 18007KT 30/15 A3022 RMK A01 T03040151  RH  039%=      5-min Rain = 0
KMD1 101704Z 17009KT 30/15 A3022 RMK A01 T03040152  RH  040%=      5-min Rain = 0
KMD1 101705Z 16006KT 30/16 A3022 RMK A01 T03040157  RH  041%=      5-min Rain = 0
KMD1 101706Z 16007KT 30/15 A3022 RMK A01 T03030154  RH  041%=      5-min Rain = 0
KMD1 101707Z 19006KT 31/15 A3022 RMK A01 T03060154  RH  040%=      5-min Rain = 0
KMD1 101708Z 17007KT 31/15 A3022 RMK A01 T03070153  RH  039%=      5-min Rain = 0
KMD1 101709Z 17008KT 31/16 A3022 RMK A01 T03060156  RH  040%=      5-min Rain = 0
KMD1 101710Z 17009KT 31/16 A3022 RMK A01 T03060157  RH  040%=      5-min Rain = 0
KMD1 101711Z 16006KT 31/15 A3022 RMK A01 T03070152  RH  039%=      5-min Rain = 0
KMD1 101712Z 17009KT 31/16 A3022 RMK A01 T03070162  RH  042%=      5-min Rain = 0
KMD1 101713Z 20008KT 31/16 A3022 RMK A01 T03090162  RH  041%=      5-min Rain = 0
KMD1 101714Z 21008KT 31/16 A3022 RMK A01 T03090158  RH  040%=      5-min Rain = 0
KMD1 101715Z 21005KT 31/16 A3022 RMK A01 T03060157  RH  040%=      5-min Rain = 0
KMD1 101716Z 21007KT 31/16 A3021 RMK A01 T03060157  RH  041%=      5-min Rain = 0
KMD1 101717Z 19005KT 31/16 A3021 RMK A01 T03060155  RH  040%=      5-min Rain = 0
KMD1 101718Z 21005KT 31/16 A3021 RMK A01 T03070155  RH  040%=      5-min Rain = 0
KMD1 101719Z 21006KT 31/15 A3021 RMK A01 T03080153  RH  039%=      5-min Rain = 0
KMD1 101720Z 19009KT 31/16 A3021 RMK A01 T03080158  RH  040%=      5-min Rain = 0
KMD1 101721Z 19009KT 31/16 A3021 RMK A01 T03090156  RH  040%=      5-min Rain = 0
KMD1 101722Z 20009KT 31/15 A3021 RMK A01 T03090153  RH  039%=      5-min Rain = 0
KMD1 101723Z 20005KT 31/15 A3021 RMK A01 T03080151  RH  038%=      5-min Rain = 0
KMD1 101724Z 20005KT 31/15 A3021 RMK A01 T03080153  RH  039%=      5-min Rain = 0
KMD1 101725Z 18009KT 31/15 A3021 RMK A01 T03090154  RH  039%=      5-min Rain = 0
KMD1 101726Z 20005KT 31/15 A3021 RMK A01 T03100150  RH  038%=      5-min Rain = 0
KMD1 101727Z 19007KT 31/15 A3021 RMK A01 T03110153  RH  039%=      5-min Rain = 0
KMD1 101728Z 17008KT 31/15 A3021 RMK A01 T03120152  RH  038%=      5-min Rain = 0
KMD1 101729Z 16009KT 31/15 A3021 RMK A01 T03130153  RH  038%=      5-min Rain = 0
KMD1 101730Z 17009KT 31/15 A3021 RMK A01 T03130151  RH  037%=      5-min Rain = 0
KMD1 101731Z 17007KT 31/15 A3021 RMK A01 T03130153  RH  038%=      5-min Rain = 0
KMD1 101732Z 18008KT 31/15 A3021 RMK A01 T03140153  RH  038%=      5-min Rain = 0
KMD1 101733Z 18006KT 31/15 A3021 RMK A01 T03130154  RH  038%=      5-min Rain = 0
KMD1 101734Z 15003KT 31/15 A3021 RMK A01 T03130152  RH  038%=      5-min Rain = 0
KMD1 101735Z 16003KT 31/15 A3021 RMK A01 T03130152  RH  038%=      5-min Rain = 0
KMD1 101736Z 18008KT 32/16 A3021 RMK A01 T03150155  RH  038%=      5-min Rain = 0
KMD1 101737Z 16007KT 32/16 A3021 RMK A01 T03160158  RH  039%=      5-min Rain = 0
KMD1 101738Z 16008KT 32/16 A3021 RMK A01 T03160155  RH  038%=      5-min Rain = 0
KMD1 101739Z 16008G14KT 32/15 A3021 RMK A01 T03150150  RH  037%=      5-min Rain = 0
KMD1 101740Z 15010KT 32/15 A302 RMK A01 T03160148  RH  036%=      5-min Rain = 0
KMD1 101741Z 14009KT 32/15 A302 RMK A01 T03150147  RH  036%=      5-min Rain = 0
KMD1 101742Z 14008KT 32/15 A302 RMK A01 T03150149  RH  037%=      5-min Rain = 0
KMD1 101743Z 14008KT 32/15 A302 RMK A01 T03160149  RH  036%=      5-min Rain = 0
KMD1 101744Z 16007KT 32/15 A302 RMK A01 T03190153  RH  037%=      5-min Rain = 0
KMD1 101745Z 16007KT 32/15 A302 RMK A01 T03210154  RH  037%=      5-min Rain = 0
KMD1 101746Z 16006KT 32/16 A302 RMK A01 T03210156  RH  037%=      5-min Rain = 0
KMD1 101747Z 18007KT 32/16 A302 RMK A01 T03220158  RH  037%=      5-min Rain = 0
KMD1 101748Z 20009KT 32/16 A302 RMK A01 T03230155  RH  036%=      5-min Rain = 0
KMD1 101749Z 19007KT 32/16 A302 RMK A01 T03200157  RH  038%=      5-min Rain = 0
KMD1 101750Z 19009KT 32/16 A302 RMK A01 T03210155  RH  037%=      5-min Rain = 0
KMD1 101751Z 20005KT 32/16 A302 RMK A01 T03210158  RH  037%=      5-min Rain = 0
KMD1 101752Z 20007KT 32/16 A302 RMK A01 T03230158  RH  037%=      5-min Rain = 0
KMD1 101753Z 21009KT 33/16 A302 RMK A01 T03250158  RH  037%=      5-min Rain = 0
KMD1 101754Z 21007KT 33/16 A302 RMK A01 T03250155  RH  036%=      5-min Rain = 0
KMD1 101755Z 20007KT 32/15 A302 RMK A01 T03230153  RH  036%=      5-min Rain = 0
KMD1 101756Z 20004KT 32/15 A302 RMK A01 T03210154  RH  037%=      5-min Rain = 0
KMD1 101757Z 21004KT 32/15 A302 RMK A01 T03210152  RH  036%=      5-min Rain = 0
KMD1 101758Z 24004KT 32/15 A302 RMK A01 T03200151  RH  036%=      5-min Rain = 0
KMD1 101759Z 21006KT 32/16 A302 RMK A01 T03190155  RH  037%=      5-min Rain = 0
KMD1 101800Z 20006KT 32/15 A302 RMK A01 T03190150  RH  036%=      5-min Rain = 0
KMD1 101801Z 19007KT 32/15 A302 RMK A01 T03180153  RH  037%=      5-min Rain = 0
KMD1 101802Z 20004KT 32/15 A302 RMK A01 T03170149  RH  036%=      5-min Rain = 0
KMD1 101803Z 22002KT 32/15 A302 RMK A01 T03160151  RH  037%=      5-min Rain = 0
KMD1 101804Z 21007KT 32/15 A3019 RMK A01 T03160154  RH  038%=      5-min Rain = 0
KMD1 101805Z 21008KT 32/16 A3019 RMK A01 T03210156  RH  037%=      5-min Rain = 0
KMD1 101806Z 22008KT 32/15 A3019 RMK A01 T03220152  RH  036%=      5-min Rain = 0
KMD1 101807Z 19007G12KT 32/15 A3019 RMK A01 T03210151  RH  036%=      5-min Rain = 0
KMD1 101808Z 21008KT 32/16 A3019 RMK A01 T03190155  RH  037%=      5-min Rain = 0
KMD1 101809Z 22007KT 32/16 A3019 RMK A01 T03200157  RH  038%=      5-min Rain = 0
KMD1 101810Z 21004KT 32/15 A3019 RMK A01 T03220152  RH  036%=      5-min Rain = 0
KMD1 101811Z 22007G12KT 32/16 A3019 RMK A01 T03220155  RH  037%=      5-min Rain = 0
KMD1 101812Z 21008KT 32/15 A3019 RMK A01 T03220149  RH  035%=      5-min Rain = 0
KMD1 101813Z 23004KT 32/15 A3019 RMK A01 T03170146  RH  035%=      5-min Rain = 0
KMD1 101814Z 24006G13KT 32/15 A3019 RMK A01 T03150149  RH  037%=      5-min Rain = 0
KMD1 101815Z 20009KT 32/15 A3019 RMK A01 T03190154  RH  037%=      5-min Rain = 0
KMD1 101816Z 20010KT 32/15 A3019 RMK A01 T03240151  RH  035%=      5-min Rain = 0
KMD1 101817Z 20010KT 33/15 A3019 RMK A01 T03250147  RH  034%=      5-min Rain = 0
KMD1 101818Z 19007KT 32/15 A3019 RMK A01 T03240147  RH  034%=      5-min Rain = 0
KMD1 101819Z 19009KT 32/15 A3019 RMK A01 T03240148  RH  034%=      5-min Rain = 0
KMD1 101820Z 19008KT 33/14 A3019 RMK A01 T03250143  RH  033%=      5-min Rain = 0
KMD1 101821Z 18005KT 32/15 A3019 RMK A01 T03240148  RH  035%=      5-min Rain = 0
KMD1 101822Z 19005KT 33/15 A3019 RMK A01 T03250145  RH  034%=      5-min Rain = 0
KMD1 101823Z 20010KT 33/15 A3019 RMK A01 T03270149  RH  034%=      5-min Rain = 0
KMD1 101824Z 23005KT 33/15 A3019 RMK A01 T03270145  RH  033%=      5-min Rain = 0
KMD1 101825Z 19005KT 33/15 A3019 RMK A01 T03250146  RH  034%=      5-min Rain = 0
KMD1 101826Z 16007KT 32/15 A3018 RMK A01 T03240149  RH  035%=      5-min Rain = 0
KMD1 101827Z 15005KT 32/15 A3018 RMK A01 T03230145  RH  034%=      5-min Rain = 0
KMD1 101828Z 14005KT 32/15 A3018 RMK A01 T03210146  RH  035%=      5-min Rain = 0
KMD1 101829Z 15003KT 32/15 A3018 RMK A01 T03210146  RH  035%=      5-min Rain = 0
KMD1 101830Z 20003KT 32/15 A3018 RMK A01 T03220151  RH  036%=      5-min Rain = 0
KMD1 101831Z 20007KT 33/15 A3018 RMK A01 T03260145  RH  034%=      5-min Rain = 0
KMD1 101832Z 20006KT 33/15 A3018 RMK A01 T03260150  RH  035%=      5-min Rain = 0
KMD1 101833Z 23006KT 33/15 A3018 RMK A01 T03300145  RH  033%=      5-min Rain = 0
KMD1 101834Z 22007KT 33/15 A3018 RMK A01 T03290147  RH  034%=      5-min Rain = 0
KMD1 101835Z 21011KT 33/15 A3018 RMK A01 T03280150  RH  034%=      5-min Rain = 0
KMD1 101836Z 20010KT 33/15 A3018 RMK A01 T03290145  RH  033%=      5-min Rain = 0
KMD1 101837Z 21009KT 33/15 A3018 RMK A01 T03280148  RH  034%=      5-min Rain = 0
KMD1 101838Z 20009KT 33/15 A3018 RMK A01 T03300146  RH  033%=      5-min Rain = 0
KMD1 101839Z 20009KT 33/15 A3018 RMK A01 T03300147  RH  033%=      5-min Rain = 0
KMD1 101840Z 20007KT 33/14 A3018 RMK A01 T03280143  RH  033%=      5-min Rain = 0
KMD1 101841Z 20006KT 33/14 A3018 RMK A01 T03260142  RH  033%=      5-min Rain = 0
KMD1 101842Z 19004KT 32/14 A3018 RMK A01 T03240140  RH  033%=      5-min Rain = 0
KMD1 101843Z 20003KT 32/14 A3017 RMK A01 T03230142  RH  033%=      5-min Rain = 0
KMD1 101844Z 19007KT 32/15 A3017 RMK A01 T03240145  RH  034%=      5-min Rain = 0
KMD1 101845Z 22007KT 33/15 A3017 RMK A01 T03250149  RH  035%=      5-min Rain = 0
KMD1 101846Z 23009KT 33/15 A3017 RMK A01 T03270145  RH  033%=      5-min Rain = 0
KMD1 101847Z 22006KT 33/15 A3017 RMK A01 T03260145  RH  033%=      5-min Rain = 0
KMD1 101848Z 19006KT 33/15 A3017 RMK A01 T03250146  RH  034%=      5-min Rain = 0
KMD1 101849Z 15006KT 33/14 A3017 RMK A01 T03270141  RH  033%=      5-min Rain = 0
KMD1 101850Z 14007KT 33/14 A3017 RMK A01 T03280142  RH  033%=      5-min Rain = 0
KMD1 101851Z 13008KT 33/14 A3017 RMK A01 T03300140  RH  032%=      5-min Rain = 0
KMD1 101852Z 16006KT 33/14 A3017 RMK A01 T03310143  RH  032%=      5-min Rain = 0
KMD1 101853Z 17008KT 33/15 A3017 RMK A01 T03320146  RH  033%=      5-min Rain = 0
KMD1 101854Z 17010KT 34/14 A3017 RMK A01 T03350142  RH  031%=      5-min Rain = 0
KMD1 101855Z 18010KT 34/14 A3017 RMK A01 T03350136  RH  030%=      5-min Rain = 0
KMD1 101856Z 16010KT 33/14 A3017 RMK A01 T03320136  RH  030%=      5-min Rain = 0
KMD1 101857Z 16009KT 33/14 A3017 RMK A01 T03310135  RH  030%=      5-min Rain = 0
KMD1 101858Z 16005KT 33/13 A3017 RMK A01 T03290132  RH  030%=      5-min Rain = 0
KMD1 101859Z 16007KT 33/14 A3017 RMK A01 T03290138  RH  032%=      5-min Rain = 0
KMD1 101900Z 19008KT 33/14 A3016 RMK A01 T03330144  RH  032%=      5-min Rain = 0
KMD1 101901Z 20005KT 34/14 A3016 RMK A01 T03350139  RH  031%=      5-min Rain = 0
KMD1 101902Z 22008KT 34/14 A3016 RMK A01 T03350144  RH  032%=      5-min Rain = 0
KMD1 101903Z 20009KT 34/14 A3016 RMK A01 T03350144  RH  032%=      5-min Rain = 0
KMD1 101904Z 17012KT 34/14 A3016 RMK A01 T03350141  RH  031%=      5-min Rain = 0
KMD1 101905Z 18008KT 33/14 A3016 RMK A01 T03330137  RH  031%=      5-min Rain = 0
KMD1 101906Z 23003KT 33/13 A3016 RMK A01 T03310133  RH  030%=      5-min Rain = 0
KMD1 101907Z 20006KT 33/13 A3016 RMK A01 T03300134  RH  031%=      5-min Rain = 0
KMD1 101908Z 22005KT 33/14 A3016 RMK A01 T03300137  RH  031%=      5-min Rain = 0
KMD1 101909Z 26005KT 33/14 A3016 RMK A01 T03320139  RH  031%=      5-min Rain = 0
KMD1 101910Z 25005KT 33/14 A3016 RMK A01 T03330140  RH  031%=      5-min Rain = 0
KMD1 101911Z 21004KT 33/14 A3016 RMK A01 T03330140  RH  031%=      5-min Rain = 0
KMD1 101912Z 23008G13KT 33/14 A3016 RMK A01 T03320143  RH  032%=      5-min Rain = 0
KMD1 101913Z 14011G16KT 34/14 A3016 RMK A01 T03360144  RH  032%=      5-min Rain = 0
KMD1 101914Z 13005KT 34/14 A3016 RMK A01 T03400141  RH  030%=      5-min Rain = 0
KMD1 101915Z 15008KT 34/14 A3016 RMK A01 T03400141  RH  030%=      5-min Rain = 0
KMD1 101916Z 19013KT 34/14 A3016 RMK A01 T03410143  RH  030%=      5-min Rain = 0
KMD1 101917Z 19010KT 34/14 A3016 RMK A01 T03370140  RH  031%=      5-min Rain = 0
KMD1 101918Z 19010KT 34/14 A3016 RMK A01 T03360141  RH  031%=      5-min Rain = 0
KMD1 101919Z 20008KT 34/14 A3016 RMK A01 T03350137  RH  030%=      5-min Rain = 0
KMD1 101920Z 17008KT 33/14 A3016 RMK A01 T03320141  RH  031%=      5-min Rain = 0
KMD1 101921Z 15007KT 33/14 A3016 RMK A01 T03340143  RH  032%=      5-min Rain = 0
KMD1 101922Z 15008KT 34/14 A3016 RMK A01 T03380141  RH  031%=      5-min Rain = 0
KMD1 101923Z 13010KT 34/14 A3016 RMK A01 T03380140  RH  030%=      5-min Rain = 0
KMD1 101924Z 15005KT 34/14 A3016 RMK A01 T03400138  RH  030%=      5-min Rain = 0
KMD1 101925Z 17003KT 34/14 A3015 RMK A01 T03390137  RH  030%=      5-min Rain = 0
KMD1 101926Z 16003KT 34/14 A3015 RMK A01 T03380138  RH  030%=      5-min Rain = 0
KMD1 101927Z 16002KT 34/14 A3015 RMK A01 T03380137  RH  030%=      5-min Rain = 0
KMD1 101928Z 14003KT 34/14 A3015 RMK A01 T03370138  RH  030%=      5-min Rain = 0
KMD1 101929Z 20003KT 34/14 A3015 RMK A01 T03380137  RH  030%=      5-min Rain = 0
KMD1 101930Z 21008KT 34/14 A3015 RMK A01 T03400137  RH  029%=      5-min Rain = 0
KMD1 101931Z 21006KT 34/14 A3015 RMK A01 T03390138  RH  030%=      5-min Rain = 0
KMD1 101932Z 21010KT 34/14 A3015 RMK A01 T03360140  RH  031%=      5-min Rain = 0
KMD1 101933Z 20009KT 34/14 A3015 RMK A01 T03350137  RH  030%=      5-min Rain = 0
KMD1 101934Z 22010KT 33/14 A3015 RMK A01 T03340138  RH  031%=      5-min Rain = 0
KMD1 101935Z 22008KT 33/14 A3015 RMK A01 T03330136  RH  030%=      5-min Rain = 0
KMD1 101936Z 22007KT 33/14 A3015 RMK A01 T03330136  RH  031%=      5-min Rain = 0
KMD1 101937Z 22009KT 33/14 A3015 RMK A01 T03330138  RH  031%=      5-min Rain = 0
KMD1 101938Z 23005KT 33/14 A3015 RMK A01 T03330138  RH  031%=      5-min Rain = 0
KMD1 101939Z 26003KT 33/14 A3015 RMK A01 T03340136  RH  030%=      5-min Rain = 0
KMD1 101940Z 26002KT 33/14 A3015 RMK A01 T03340135  RH  030%=      5-min Rain = 0
KMD1 101941Z 29001KT 33/14 A3015 RMK A01 T03340135  RH  030%=      5-min Rain = 0
KMD1 101942Z 04000KT 33/14 A3015 RMK A01 T03340139  RH  031%=      5-min Rain = 0
KMD1 101943Z 12002KT 34/14 A3015 RMK A01 T03380139  RH  030%=      5-min Rain = 0
KMD1 101944Z 14006KT 34/14 A3015 RMK A01 T03400140  RH  030%=      5-min Rain = 0
KMD1 101945Z 16008KT 34/14 A3014 RMK A01 T03410140  RH  030%=      5-min Rain = 0
KMD1 101946Z 17007KT 34/14 A3014 RMK A01 T03410140  RH  030%=      5-min Rain = 0
KMD1 101947Z 18008KT 34/14 A3014 RMK A01 T03410137  RH  029%=      5-min Rain = 0
KMD1 101948Z 16009KT 34/14 A3014 RMK A01 T03410137  RH  029%=      5-min Rain = 0
KMD1 101949Z 17005KT 34/13 A3014 RMK A01 T03380134  RH  029%=      5-min Rain = 0
KMD1 101950Z 17003KT 34/13 A3014 RMK A01 T03350133  RH  029%=      5-min Rain = 0
KMD1 101951Z 17006KT 34/14 A3014 RMK A01 T03350136  RH  030%=      5-min Rain = 0
KMD1 101952Z 16004KT 34/13 A3014 RMK A01 T03360133  RH  029%=      5-min Rain = 0
KMD1 101953Z 15006KT 34/14 A3014 RMK A01 T03400135  RH  029%=      5-min Rain = 0
KMD1 101954Z 14005KT 34/14 A3014 RMK A01 T03430136  RH  029%=      5-min Rain = 0
KMD1 101955Z 14007KT 34/13 A3014 RMK A01 T03440129  RH  027%=      5-min Rain = 0
KMD1 101956Z 14004KT 34/13 A3014 RMK A01 T03410127  RH  028%=      5-min Rain = 0
KMD1 101957Z 17004KT 34/13 A3014 RMK A01 T03380130  RH  028%=      5-min Rain = 0
KMD1 101958Z 15004KT 34/13 A3014 RMK A01 T03400134  RH  029%=      5-min Rain = 0
KMD1 101959Z 16005KT 34/13 A3014 RMK A01 T03430128  RH  027%=      5-min Rain = 0
KMD1 102000Z 18003KT 34/14 A3014 RMK A01 T03420139  RH  029%=      5-min Rain = 0
KMD1 102001Z 12002KT 34/14 A3014 RMK A01 T03440135  RH  028%=      5-min Rain = 0
KMD1 102002Z 09001KT 34/14 A3014 RMK A01 T03430135  RH  029%=      5-min Rain = 0
KMD1 102003Z 21004KT 34/14 A3014 RMK A01 T03420139  RH  029%=      5-min Rain = 0
KMD1 102004Z 21008KT 34/14 A3014 RMK A01 T03430138  RH  029%=      5-min Rain = 0
KMD1 102005Z 19007KT 34/14 A3014 RMK A01 T03420138  RH  029%=      5-min Rain = 0
KMD1 102006Z 16008KT 34/14 A3013 RMK A01 T03420136  RH  029%=      5-min Rain = 0
KMD1 102007Z 15008KT 34/14 A3013 RMK A01 T03420140  RH  030%=      5-min Rain = 0
KMD1 102008Z 17008KT 34/14 A3013 RMK A01 T03440136  RH  029%=      5-min Rain = 0
KMD1 102009Z 19006G12KT 34/14 A3013 RMK A01 T03440135  RH  028%=      5-min Rain = 0
KMD1 102010Z 20009KT 34/13 A3013 RMK A01 T03430131  RH  028%=      5-min Rain = 0
KMD1 102011Z 19004KT 34/13 A3013 RMK A01 T03410126  RH  027%=      5-min Rain = 0
KMD1 102012Z 20007KT 34/13 A3013 RMK A01 T03410130  RH  028%=      5-min Rain = 0
KMD1 102013Z 22007KT 34/13 A3013 RMK A01 T03430134  RH  028%=      5-min Rain = 0
KMD1 102014Z 23006KT 34/13 A3013 RMK A01 T03440134  RH  028%=      5-min Rain = 0
KMD1 102015Z 21007KT 35/14 A3013 RMK A01 T03460136  RH  028%=      5-min Rain = 0
KMD1 102016Z 21008KT 35/13 A3013 RMK A01 T03470133  RH  028%=      5-min Rain = 0
KMD1 102017Z 21006KT 35/13 A3013 RMK A01 T03460132  RH  028%=      5-min Rain = 0
KMD1 102018Z 21006KT 35/13 A3013 RMK A01 T03450130  RH  027%=      5-min Rain = 0
KMD1 102019Z 24007KT 34/13 A3013 RMK A01 T03430131  RH  028%=      5-min Rain = 0
KMD1 102020Z 25007KT 34/13 A3013 RMK A01 T03430133  RH  028%=      5-min Rain = 0
KMD1 102021Z 24006KT 35/13 A3013 RMK A01 T03460131  RH  027%=      5-min Rain = 0
KMD1 102022Z 23005KT 34/13 A3013 RMK A01 T03440130  RH  028%=      5-min Rain = 0
KMD1 102023Z 19005KT 34/14 A3012 RMK A01 T03430139  RH  029%=      5-min Rain = 0
KMD1 102024Z 16008KT 35/14 A3012 RMK A01 T03460138  RH  029%=      5-min Rain = 0
KMD1 102025Z 18010KT 35/14 A3012 RMK A01 T03480137  RH  028%=      5-min Rain = 0
KMD1 102026Z 18010G16KT 35/14 A3012 RMK A01 T03480137  RH  028%=      5-min Rain = 0
KMD1 102027Z 13007KT 35/13 A3012 RMK A01 T03470130  RH  027%=      5-min Rain = 0
KMD1 102028Z 15004KT 35/12 A3012 RMK A01 T03470124  RH  026%=      5-min Rain = 0
KMD1 102029Z 16007KT 34/13 A3012 RMK A01 T03440128  RH  027%=      5-min Rain = 0
KMD1 102030Z 17008KT 34/13 A3012 RMK A01 T03430126  RH  027%=      5-min Rain = 0
KMD1 102031Z 20008KT 34/13 A3012 RMK A01 T03440127  RH  027%=      5-min Rain = 0
KMD1 102032Z 18010KT 35/13 A3012 RMK A01 T03450127  RH  027%=      5-min Rain = 0
KMD1 102033Z 18010KT 35/12 A3012 RMK A01 T03460123  RH  026%=      5-min Rain = 0
KMD1 102034Z 17007KT 34/13 A3012 RMK A01 T03440126  RH  027%=      5-min Rain = 0
KMD1 102035Z 18010KT 34/13 A3012 RMK A01 T03440125  RH  027%=      5-min Rain = 0
KMD1 102036Z 19010KT 34/12 A3012 RMK A01 T03440122  RH  026%=      5-min Rain = 0
KMD1 102037Z 20009KT 34/13 A3012 RMK A01 T03440127  RH  027%=      5-min Rain = 0
KMD1 102038Z 20011KT 35/12 A3012 RMK A01 T03460120  RH  025%=      5-min Rain = 0
KMD1 102039Z 19010KT 34/12 A3012 RMK A01 T03440121  RH  026%=      5-min Rain = 0
KMD1 102040Z 18009KT 35/12 A3011 RMK A01 T03450120  RH  026%=      5-min Rain = 0
KMD1 102041Z 19005KT 34/12 A3011 RMK A01 T03440115  RH  025%=      5-min Rain = 0
KMD1 102042Z 19003KT 34/12 A3011 RMK A01 T03430116  RH  025%=      5-min Rain = 0
KMD1 102043Z 23004KT 34/12 A3011 RMK A01 T03430118  RH  025%=      5-min Rain = 0
KMD1 102044Z 22002KT 34/11 A3011 RMK A01 T03440109  RH  024%=      5-min Rain = 0
KMD1 102045Z 21000KT 34/11 A3011 RMK A01 T03420109  RH  024%=      5-min Rain = 0
KMD1 102046Z 02000KT 34/11 A3011 RMK A01 T03410110  RH  025%=      5-min Rain = 0
KMD1 102047Z 30001KT 34/11 A3011 RMK A01 T03420113  RH  025%=      5-min Rain = 0
KMD1 102048Z 32002KT 34/12 A3011 RMK A01 T03440119  RH  026%=      5-min Rain = 0
KMD1 102049Z 16004KT 35/12 A3011 RMK A01 T03450124  RH  026%=      5-min Rain = 0
KMD1 102050Z 15010KT 35/13 A3011 RMK A01 T03470127  RH  026%=      5-min Rain = 0
KMD1 102051Z 16013KT 35/13 A3011 RMK A01 T03490132  RH  027%=      5-min Rain = 0
KMD1 102052Z 16011KT 35/13 A3011 RMK A01 T03480131  RH  027%=      5-min Rain = 0
KMD1 102053Z 15011KT 35/13 A3011 RMK A01 T03460131  RH  027%=      5-min Rain = 0
KMD1 102054Z 16009KT 35/13 A3011 RMK A01 T03470129  RH  027%=      5-min Rain = 0
KMD1 102055Z 16008KT 35/13 A3011 RMK A01 T03460129  RH  027%=      5-min Rain = 0
KMD1 102056Z 17007KT 34/13 A301 RMK A01 T03440129  RH  027%=      5-min Rain = 0
KMD1 102057Z 16005KT 34/13 A301 RMK A01 T03430128  RH  027%=      5-min Rain = 0
KMD1 102058Z 20005KT 34/13 A301 RMK A01 T03430133  RH  028%=      5-min Rain = 0
KMD1 102059Z 20007KT 35/13 A301 RMK A01 T03460132  RH  028%=      5-min Rain = 0
KMD1 102100Z 20012KT 35/13 A301 RMK A01 T03470131  RH  027%=      5-min Rain = 0
KMD1 102101Z 20008KT 35/13 A301 RMK A01 T03460130  RH  027%=      5-min Rain = 0
KMD1 102102Z 18005KT 35/13 A301 RMK A01 T03450133  RH  028%=      5-min Rain = 0
KMD1 102103Z 18003KT 35/13 A301 RMK A01 T03470126  RH  026%=      5-min Rain = 0
KMD1 102104Z 17002KT 35/13 A301 RMK A01 T03480126  RH  026%=      5-min Rain = 0
KMD1 102105Z 22002KT 35/13 A301 RMK A01 T03480125  RH  026%=      5-min Rain = 0
KMD1 102106Z 20006KT 35/13 A301 RMK A01 T03480130  RH  027%=      5-min Rain = 0
KMD1 102107Z 21009KT 35/13 A301 RMK A01 T03470134  RH  028%=      5-min Rain = 0
KMD1 102108Z 22008KT 35/13 A301 RMK A01 T03450134  RH  028%=      5-min Rain = 0
KMD1 102109Z 22007KT 34/13 A301 RMK A01 T03440130  RH  028%=      5-min Rain = 0
KMD1 102110Z 22007KT 34/13 A301 RMK A01 T03440133  RH  028%=      5-min Rain = 0
KMD1 102111Z 19011KT 35/14 A301 RMK A01 T03460135  RH  028%=      5-min Rain = 0
KMD1 102112Z 21008KT 35/13 A301 RMK A01 T03460131  RH  027%=      5-min Rain = 0
KMD1 102113Z 24008KT 34/13 A301 RMK A01 T03440132  RH  028%=      5-min Rain = 0
KMD1 102114Z 26005KT 34/13 A301 RMK A01 T03440129  RH  027%=      5-min Rain = 0
KMD1 102115Z 28005KT 34/13 A301 RMK A01 T03440129  RH  027%=      5-min Rain = 0
KMD1 102116Z 24003KT 34/13 A301 RMK A01 T03440126  RH  027%=      5-min Rain = 0
KMD1 102117Z 17003KT 34/13 A301 RMK A01 T03440129  RH  027%=      5-min Rain = 0
KMD1 102118Z 19004KT 34/13 A301 RMK A01 T03420126  RH  027%=      5-min Rain = 0
KMD1 102119Z 15006KT 34/13 A301 RMK A01 T03400132  RH  028%=      5-min Rain = 0
KMD1 102120Z 14007KT 34/12 A301 RMK A01 T03400118  RH  026%=      5-min Rain = 0
KMD1 102121Z 16012KT 34/12 A301 RMK A01 T03390121  RH  027%=      5-min Rain = 0
KMD1 102122Z 14011KT 34/12 A301 RMK A01 T03400118  RH  026%=      5-min Rain = 0
KMD1 102123Z 14011KT 34/12 A301 RMK A01 T03400119  RH  026%=      5-min Rain = 0
KMD1 102124Z 13009KT 34/12 A301 RMK A01 T03410116  RH  026%=      5-min Rain = 0
KMD1 102125Z 16008KT 34/12 A301 RMK A01 T03410116  RH  025%=      5-min Rain = 0
KMD1 102126Z 14006KT 34/12 A301 RMK A01 T03400115  RH  025%=      5-min Rain = 0
KMD1 102127Z 14006KT 34/12 A301 RMK A01 T03380115  RH  026%=      5-min Rain = 0
KMD1 102128Z 14009KT 34/12 A301 RMK A01 T03400120  RH  026%=      5-min Rain = 0
KMD1 102129Z 15005G11KT 34/13 A301 RMK A01 T03440127  RH  027%=      5-min Rain = 0
KMD1 102130Z 15006KT 35/13 A301 RMK A01 T03490128  RH  027%=      5-min Rain = 0
KMD1 102131Z 14007KT 35/13 A301 RMK A01 T03510125  RH  026%=      5-min Rain = 0
KMD1 102132Z 18010KT 35/13 A301 RMK A01 T03510129  RH  026%=      5-min Rain = 0
KMD1 102133Z 16007KT 35/12 A301 RMK A01 T03500124  RH  025%=      5-min Rain = 0
KMD1 102134Z 21006KT 35/13 A301 RMK A01 T03470127  RH  027%=      5-min Rain = 0
KMD1 102135Z 20008KT 35/12 A301 RMK A01 T03470123  RH  026%=      5-min Rain = 0
KMD1 102136Z 20008KT 35/12 A301 RMK A01 T03450124  RH  026%=      5-min Rain = 0
KMD1 102137Z 21006KT 34/13 A301 RMK A01 T03440130  RH  027%=      5-min Rain = 0
KMD1 102138Z 21008KT 35/13 A3009 RMK A01 T03470129  RH  027%=      5-min Rain = 0
KMD1 102139Z 19008KT 35/13 A3009 RMK A01 T03480128  RH  027%=      5-min Rain = 0
KMD1 102140Z 23004KT 35/12 A3009 RMK A01 T03470124  RH  026%=      5-min Rain = 0
KMD1 102141Z 23006KT 35/12 A3009 RMK A01 T03470123  RH  026%=      5-min Rain = 0
KMD1 102142Z 22006KT 35/12 A3009 RMK A01 T03470124  RH  026%=      5-min Rain = 0
KMD1 102143Z 22008KT 35/13 A3009 RMK A01 T03480126  RH  026%=      5-min Rain = 0
KMD1 102144Z 21007KT 35/13 A3009 RMK A01 T03480126  RH  026%=      5-min Rain = 0
KMD1 102145Z 21005KT 35/13 A3009 RMK A01 T03490130  RH  027%=      5-min Rain = 0
KMD1 102146Z 22010KT 35/13 A3009 RMK A01 T03510126  RH  026%=      5-min Rain = 0
KMD1 102147Z 21009KT 35/12 A3009 RMK A01 T03510123  RH  025%=      5-min Rain = 0
KMD1 102148Z 20011KT 35/13 A3009 RMK A01 T03500125  RH  026%=      5-min Rain = 0
KMD1 102149Z 21008KT 35/12 A3009 RMK A01 T03490124  RH  026%=      5-min Rain = 0
KMD1 102150Z 22006KT 35/13 A3009 RMK A01 T03480128  RH  027%=      5-min Rain = 0
KMD1 102151Z 23005KT 35/13 A3009 RMK A01 T03490126  RH  026%=      5-min Rain = 0
KMD1 102152Z 23005KT 35/12 A3009 RMK A01 T03480124  RH  026%=      5-min Rain = 0
KMD1 102153Z 25009KT 35/13 A3009 RMK A01 T03470128  RH  027%=      5-min Rain = 0
KMD1 102154Z 25008KT 35/12 A3009 RMK A01 T03480124  RH  026%=      5-min Rain = 0
KMD1 102155Z 26005KT 35/12 A3009 RMK A01 T03480124  RH  026%=      5-min Rain = 0
KMD1 102156Z 23004KT 35/13 A3009 RMK A01 T03480125  RH  026%=      5-min Rain = 0
KMD1 102157Z 20005KT 35/13 A3009 RMK A01 T03490130  RH  027%=      5-min Rain = 0
KMD1 102158Z 18007KT 35/13 A3009 RMK A01 T03500129  RH  026%=      5-min Rain = 0
KMD1 102159Z 19009KT 35/12 A3009 RMK A01 T03480123  RH  026%=      5-min Rain = 0
KMD1 102200Z 18008KT 35/12 A3009 RMK A01 T03450123  RH  026%=      5-min Rain = 0
KMD1 102201Z 18008KT 34/12 A3009 RMK A01 T03440122  RH  026%=      5-min Rain = 0
KMD1 102202Z 17010KT 34/12 A3009 RMK A01 T03410121  RH  026%=      5-min Rain = 0
KMD1 102203Z 14006KT 34/12 A3009 RMK A01 T03400123  RH  027%=      5-min Rain = 0
KMD1 102204Z 15007KT 34/12 A3009 RMK A01 T03410121  RH  026%=      5-min Rain = 0
KMD1 102205Z 16008KT 35/13 A3009 RMK A01 T03450125  RH  026%=      5-min Rain = 0
KMD1 102206Z 17009KT 35/12 A3009 RMK A01 T03480124  RH  026%=      5-min Rain = 0
KMD1 102207Z 16006KT 35/13 A3009 RMK A01 T03490125  RH  026%=      5-min Rain = 0
KMD1 102208Z 15005KT 35/13 A3009 RMK A01 T03490128  RH  026%=      5-min Rain = 0
KMD1 102209Z 17007KT 35/13 A3009 RMK A01 T03520130  RH  026%=      5-min Rain = 0
KMD1 102210Z 16009KT 36/13 A3009 RMK A01 T03550132  RH  026%=      5-min Rain = 0
KMD1 102211Z 15009KT 36/13 A3009 RMK A01 T03560128  RH  025%=      5-min Rain = 0
KMD1 102212Z 16011KT 35/13 A3009 RMK A01 T03540125  RH  025%=      5-min Rain = 0
KMD1 102213Z 14009KT 35/13 A3009 RMK A01 T03520126  RH  026%=      5-min Rain = 0
KMD1 102214Z 15006KT 35/12 A3009 RMK A01 T03500124  RH  026%=      5-min Rain = 0
KMD1 102215Z 16007KT 35/12 A3009 RMK A01 T03490123  RH  026%=      5-min Rain = 0
KMD1 102216Z 17010KT 35/13 A3009 RMK A01 T03460126  RH  027%=      5-min Rain = 0
KMD1 102217Z 17008KT 34/12 A3009 RMK A01 T03420122  RH  026%=      5-min Rain = 0
KMD1 102218Z 16007KT 34/12 A3009 RMK A01 T03400124  RH  027%=      5-min Rain = 0
KMD1 102219Z 17005KT 34/13 A3009 RMK A01 T03410125  RH  027%=      5-min Rain = 0
KMD1 102220Z 13002KT 34/12 A3009 RMK A01 T03430122  RH  026%=      5-min Rain = 0
KMD1 102221Z 13003KT 35/12 A3009 RMK A01 T03450122  RH  026%=      5-min Rain = 0
KMD1 102222Z 14007KT 35/13 A3009 RMK A01 T03480126  RH  026%=      5-min Rain = 0
KMD1 102223Z 15006KT 35/12 A3009 RMK A01 T03520124  RH  025%=      5-min Rain = 0
KMD1 102224Z 20005KT 35/13 A3008 RMK A01 T03520125  RH  025%=      5-min Rain = 0
KMD1 102225Z 20008KT 35/13 A3008 RMK A01 T03520132  RH  027%=      5-min Rain = 0
KMD1 102226Z 21009KT 35/13 A3008 RMK A01 T03520128  RH  026%=      5-min Rain = 0
KMD1 102227Z 23008KT 35/12 A3008 RMK A01 T03520124  RH  025%=      5-min Rain = 0
KMD1 102228Z 23008KT 35/12 A3008 RMK A01 T03510123  RH  025%=      5-min Rain = 0
KMD1 102229Z 23008KT 35/13 A3008 RMK A01 T03500125  RH  026%=      5-min Rain = 0
KMD1 102230Z 24004KT 35/12 A3008 RMK A01 T03480117  RH  025%=      5-min Rain = 0
KMD1 102231Z 21004KT 35/12 A3008 RMK A01 T03450119  RH  025%=      5-min Rain = 0
KMD1 102232Z 21003KT 35/12 A3008 RMK A01 T03450118  RH  025%=      5-min Rain = 0
KMD1 102233Z 21004KT 34/12 A3008 RMK A01 T03440117  RH  025%=      5-min Rain = 0
KMD1 102234Z 21003KT 34/12 A3008 RMK A01 T03430123  RH  026%=      5-min Rain = 0
KMD1 102235Z 22004KT 34/12 A3008 RMK A01 T03430123  RH  026%=      5-min Rain = 0
KMD1 102236Z 20006KT 34/12 A3008 RMK A01 T03430123  RH  026%=      5-min Rain = 0
KMD1 102237Z 17006KT 35/13 A3008 RMK A01 T03450126  RH  027%=      5-min Rain = 0
KMD1 102238Z 16008KT 35/13 A3008 RMK A01 T03470131  RH  027%=      5-min Rain = 0
KMD1 102239Z 15006KT 35/13 A3008 RMK A01 T03490131  RH  027%=      5-min Rain = 0
KMD1 102240Z 16009KT 35/13 A3008 RMK A01 T03500133  RH  027%=      5-min Rain = 0
KMD1 102241Z 17008KT 35/13 A3008 RMK A01 T03500127  RH  026%=      5-min Rain = 0
KMD1 102242Z 17011KT 35/13 A3008 RMK A01 T03470130  RH  027%=      5-min Rain = 0
KMD1 102243Z 16012KT 35/13 A3008 RMK A01 T03480128  RH  027%=      5-min Rain = 0
KMD1 102244Z 16011KT 35/13 A3008 RMK A01 T03470129  RH  027%=      5-min Rain = 0
KMD1 102245Z 15011KT 35/13 A3008 RMK A01 T03470126  RH  026%=      5-min Rain = 0
KMD1 102246Z 14008KT 35/13 A3008 RMK A01 T03460128  RH  027%=      5-min Rain = 0
KMD1 102247Z 16009KT 35/13 A3008 RMK A01 T03460127  RH  027%=      5-min Rain = 0
KMD1 102248Z 16006KT 35/12 A3007 RMK A01 T03460124  RH  026%=      5-min Rain = 0
KMD1 102249Z 16005KT 35/12 A3007 RMK A01 T03450124  RH  026%=      5-min Rain = 0
KMD1 102250Z 16003KT 34/12 A3007 RMK A01 T03430124  RH  027%=      5-min Rain = 0
KMD1 102251Z 12004KT 34/13 A3007 RMK A01 T03430126  RH  027%=      5-min Rain = 0
KMD1 102252Z 11006KT 34/12 A3007 RMK A01 T03430120  RH  026%=      5-min Rain = 0
KMD1 102253Z 11007KT 34/12 A3007 RMK A01 T03430121  RH  026%=      5-min Rain = 0
KMD1 102254Z 12008KT 34/12 A3007 RMK A01 T03440121  RH  026%=      5-min Rain = 0
KMD1 102255Z 16008KT 35/12 A3007 RMK A01 T03450123  RH  026%=      5-min Rain = 0
KMD1 102256Z 16011KT 34/12 A3007 RMK A01 T03440123  RH  026%=      5-min Rain = 0
KMD1 102257Z 13009KT 34/12 A3007 RMK A01 T03440124  RH  026%=      5-min Rain = 0
KMD1 102258Z 13007KT 34/12 A3007 RMK A01 T03440120  RH  026%=      5-min Rain = 0
KMD1 102259Z 12005KT 34/12 A3007 RMK A01 T03420120  RH  026%=      5-min Rain = 0
KMD1 102300Z 15007KT 34/12 A3007 RMK A01 T03400122  RH  027%=      5-min Rain = 0
KMD1 102301Z 16007KT 34/12 A3007 RMK A01 T03400124  RH  027%=      5-min Rain = 0
KMD1 102302Z 19008KT 34/12 A3007 RMK A01 T03390121  RH  027%=      5-min Rain = 0
KMD1 102303Z 15008KT 34/12 A3007 RMK A01 T03390122  RH  027%=      5-min Rain = 0
KMD1 102304Z 16006KT 34/12 A3007 RMK A01 T03400118  RH  026%=      5-min Rain = 0
KMD1 102305Z 18006KT 34/12 A3007 RMK A01 T03380120  RH  027%=      5-min Rain = 0
KMD1 102306Z 17008KT 34/12 A3007 RMK A01 T03380118  RH  026%=      5-min Rain = 0
KMD1 102307Z 19007G12KT 34/12 A3007 RMK A01 T03390120  RH  026%=      5-min Rain = 0
KMD1 102308Z 19009KT 34/12 A3007 RMK A01 T03410118  RH  026%=      5-min Rain = 0
KMD1 102309Z 19010KT 34/12 A3007 RMK A01 T03430116  RH  025%=      5-min Rain = 0
KMD1 102310Z 17010KT 34/12 A3007 RMK A01 T03440117  RH  025%=      5-min Rain = 0
KMD1 102311Z 17009KT 34/12 A3007 RMK A01 T03440121  RH  026%=      5-min Rain = 0
KMD1 102312Z 16007KT 34/12 A3007 RMK A01 T03440122  RH  026%=      5-min Rain = 0
KMD1 102313Z 17008KT 34/13 A3007 RMK A01 T03440125  RH  027%=      5-min Rain = 0
KMD1 102314Z 20011KT 34/12 A3007 RMK A01 T03440124  RH  026%=      5-min Rain = 0
KMD1 102315Z 20008KT 35/13 A3007 RMK A01 T03450126  RH  027%=      5-min Rain = 0
KMD1 102316Z 20007KT 35/13 A3007 RMK A01 T03460126  RH  026%=      5-min Rain = 0
KMD1 102317Z 19008KT 35/13 A3007 RMK A01 T03460126  RH  026%=      5-min Rain = 0
KMD1 102318Z 21008KT 35/13 A3007 RMK A01 T03460127  RH  027%=      5-min Rain = 0
KMD1 102319Z 20008KT 35/12 A3007 RMK A01 T03460124  RH  026%=      5-min Rain = 0
KMD1 102320Z 20007KT 35/12 A3007 RMK A01 T03450121  RH  026%=      5-min Rain = 0
KMD1 102321Z 19006KT 34/12 A3007 RMK A01 T03440119  RH  026%=      5-min Rain = 0
KMD1 102322Z 20007KT 35/12 A3007 RMK A01 T03450123  RH  026%=      5-min Rain = 0
KMD1 102323Z 19010KT 35/12 A3007 RMK A01 T03460119  RH  025%=      5-min Rain = 0
KMD1 102324Z 19009KT 35/12 A3007 RMK A01 T03450116  RH  025%=      5-min Rain = 0
KMD1 102325Z 18008KT 34/12 A3007 RMK A01 T03430116  RH  025%=      5-min Rain = 0
KMD1 102326Z 18005KT 34/12 A3007 RMK A01 T03420120  RH  026%=      5-min Rain = 0
KMD1 102327Z 19004KT 34/12 A3007 RMK A01 T03430115  RH  025%=      5-min Rain = 0
KMD1 102328Z 18005KT 34/11 A3007 RMK A01 T03430114  RH  025%=      5-min Rain = 0
KMD1 102329Z 17004KT 34/12 A3007 RMK A01 T03430118  RH  026%=      5-min Rain = 0
KMD1 102330Z 15005KT 34/12 A3007 RMK A01 T03430120  RH  026%=      5-min Rain = 0
KMD1 102331Z 13004KT 34/12 A3007 RMK A01 T03430119  RH  026%=      5-min Rain = 0
KMD1 102332Z 13004KT 34/12 A3007 RMK A01 T03440122  RH  026%=      5-min Rain = 0
KMD1 102333Z 15003KT 35/12 A3007 RMK A01 T03450120  RH  026%=      5-min Rain = 0
KMD1 102334Z 16003KT 35/12 A3007 RMK A01 T03460124  RH  026%=      5-min Rain = 0
KMD1 102335Z 21004KT 35/12 A3007 RMK A01 T03460124  RH  026%=      5-min Rain = 0
KMD1 102336Z 23006KT 35/13 A3006 RMK A01 T03460128  RH  027%=      5-min Rain = 0
KMD1 102337Z 24007KT 35/13 A3006 RMK A01 T03460132  RH  028%=      5-min Rain = 0
KMD1 102338Z 23006KT 35/13 A3006 RMK A01 T03450129  RH  027%=      5-min Rain = 0
KMD1 102339Z 22005KT 34/13 A3006 RMK A01 T03440133  RH  028%=      5-min Rain = 0
KMD1 102340Z 21008KT 34/13 A3006 RMK A01 T03440133  RH  028%=      5-min Rain = 0
KMD1 102341Z 20008KT 34/13 A3006 RMK A01 T03440131  RH  028%=      5-min Rain = 0
KMD1 102342Z 19008KT 34/13 A3006 RMK A01 T03430131  RH  028%=      5-min Rain = 0
KMD1 102343Z 18008KT 34/13 A3006 RMK A01 T03410128  RH  028%=      5-min Rain = 0
KMD1 102344Z 18007KT 34/13 A3006 RMK A01 T03410127  RH  027%=      5-min Rain = 0
KMD1 102345Z 17007KT 34/13 A3006 RMK A01 T03410128  RH  028%=      5-min Rain = 0
KMD1 102346Z 16006KT 34/13 A3006 RMK A01 T03410127  RH  027%=      5-min Rain = 0
KMD1 102347Z 16006KT 34/13 A3006 RMK A01 T03410126  RH  027%=      5-min Rain = 0
KMD1 102348Z 15007KT 34/13 A3006 RMK A01 T03410129  RH  028%=      5-min Rain = 0
KMD1 102349Z 15005KT 34/12 A3006 RMK A01 T03410121  RH  026%=      5-min Rain = 0
KMD1 102350Z 14006KT 34/12 A3006 RMK A01 T03410123  RH  027%=      5-min Rain = 0
KMD1 102351Z 18007KT 34/13 A3006 RMK A01 T03410127  RH  027%=      5-min Rain = 0
KMD1 102352Z 17008KT 34/13 A3006 RMK A01 T03410128  RH  027%=      5-min Rain = 0
KMD1 102353Z 18008KT 34/13 A3006 RMK A01 T03410127  RH  027%=      5-min Rain = 0
KMD1 102354Z 18007KT 34/13 A3006 RMK A01 T03410127  RH  027%=      5-min Rain = 0
KMD1 102355Z 17007KT 34/13 A3006 RMK A01 T03410125  RH  027%=      5-min Rain = 0
KMD1 102356Z 17005KT 34/12 A3006 RMK A01 T03410123  RH  027%=      5-min Rain = 0
KMD1 102357Z 17003KT 34/12 A3006 RMK A01 T03400122  RH  027%=      5-min Rain = 0
KMD1 102358Z 15005KT 34/12 A3006 RMK A01 T03410123  RH  027%=      5-min Rain = 0
KMD1 102359Z 16010KT 34/13 A3006 RMK A01 T03400128  RH  028%=      5-min Rain = 0
KMD1 110000Z 18010KT 34/13 A3006 RMK A01 T03410129  RH  028%=      5-min Rain = 0
KMD1 110001Z 21005KT 34/13 A3006 RMK A01 T03400132  RH  029%=      5-min Rain = 0
KMD1 110002Z 20008KT 34/13 A3006 RMK A01 T03400130  RH  028%=      5-min Rain = 0
KMD1 110003Z 19008KT 34/12 A3006 RMK A01 T03400124  RH  027%=      5-min Rain = 0
KMD1 110004Z 18009KT 34/12 A3005 RMK A01 T03410124  RH  027%=      5-min Rain = 0
KMD1 110005Z 18010KT 34/13 A3005 RMK A01 T03400126  RH  027%=      5-min Rain = 0
KMD1 110006Z 18008KT 34/12 A3005 RMK A01 T03400123  RH  027%=      5-min Rain = 0
KMD1 110007Z 17007KT 34/12 A3005 RMK A01 T03380123  RH  027%=      5-min Rain = 0
KMD1 110008Z 17007KT 34/13 A3005 RMK A01 T03380125  RH  028%=      5-min Rain = 0
KMD1 110009Z 15009KT 34/12 A3005 RMK A01 T03370123  RH  027%=      5-min Rain = 0
KMD1 110010Z 18007KT 34/13 A3005 RMK A01 T03380125  RH  028%=      5-min Rain = 0
KMD1 110011Z 18004KT 34/12 A3005 RMK A01 T03380123  RH  027%=      5-min Rain = 0
KMD1 110012Z 17004KT 34/12 A3005 RMK A01 T03380124  RH  027%=      5-min Rain = 0
KMD1 110013Z 19005KT 34/13 A3005 RMK A01 T03390127  RH  028%=      5-min Rain = 0
KMD1 110014Z 19006KT 34/13 A3005 RMK A01 T03400126  RH  027%=      5-min Rain = 0
KMD1 110015Z 18005KT 34/13 A3005 RMK A01 T03390131  RH  028%=      5-min Rain = 0
KMD1 110016Z 19005KT 34/13 A3005 RMK A01 T03390128  RH  028%=      5-min Rain = 0
KMD1 110017Z 19006KT 34/13 A3005 RMK A01 T03390129  RH  028%=      5-min Rain = 0
KMD1 110018Z 20007KT 34/13 A3005 RMK A01 T03390128  RH  028%=      5-min Rain = 0
KMD1 110019Z 19007KT 34/13 A3005 RMK A01 T03380128  RH  028%=      5-min Rain = 0
KMD1 110020Z 21005KT 34/13 A3005 RMK A01 T03370127  RH  028%=      5-min Rain = 0
KMD1 110021Z 19005KT 34/13 A3005 RMK A01 T03370129  RH  028%=      5-min Rain = 0
KMD1 110022Z 18008KT 34/13 A3005 RMK A01 T03370128  RH  028%=      5-min Rain = 0
KMD1 110023Z 16007KT 34/13 A3005 RMK A01 T03360125  RH  028%=      5-min Rain = 0
KMD1 110024Z 18008KT 34/13 A3005 RMK A01 T03360125  RH  028%=      5-min Rain = 0
KMD1 110025Z 16007KT 34/12 A3005 RMK A01 T03350123  RH  028%=      5-min Rain = 0
KMD1 110026Z 16007KT 34/13 A3005 RMK A01 T03360125  RH  028%=      5-min Rain = 0
KMD1 110027Z 16009KT 34/13 A3006 RMK A01 T03350125  RH  028%=      5-min Rain = 0
KMD1 110028Z 17009KT 34/12 A3006 RMK A01 T03350123  RH  028%=      5-min Rain = 0
KMD1 110029Z 17006KT 33/12 A3006 RMK A01 T03340121  RH  027%=      5-min Rain = 0
KMD1 110030Z 17009KT 33/13 A3006 RMK A01 T03340126  RH  028%=      5-min Rain = 0
KMD1 110031Z 16007KT 33/13 A3006 RMK A01 T03340126  RH  028%=      5-min Rain = 0
KMD1 110032Z 15009KT 33/13 A3006 RMK A01 T03340130  RH  029%=      5-min Rain = 0
KMD1 110033Z 15010KT 33/13 A3006 RMK A01 T03340133  RH  030%=      5-min Rain = 0
KMD1 110034Z 15010KT 33/14 A3006 RMK A01 T03320135  RH  030%=      5-min Rain = 0
KMD1 110035Z 15011KT 33/14 A3006 RMK A01 T03320136  RH  031%=      5-min Rain = 0
KMD1 110036Z 16012KT 33/14 A3006 RMK A01 T03310136  RH  031%=      5-min Rain = 0
KMD1 110037Z 14008KT 33/14 A3006 RMK A01 T03300135  RH  031%=      5-min Rain = 0
KMD1 110038Z 14011KT 33/14 A3006 RMK A01 T03300135  RH  031%=      5-min Rain = 0
KMD1 110039Z 15011KT 33/13 A3006 RMK A01 T03300134  RH  030%=      5-min Rain = 0
KMD1 110040Z 15009KT 33/14 A3006 RMK A01 T03300135  RH  031%=      5-min Rain = 0
KMD1 110041Z 14008KT 33/14 A3006 RMK A01 T03290137  RH  031%=      5-min Rain = 0
KMD1 110042Z 15010KT 33/14 A3006 RMK A01 T03290137  RH  031%=      5-min Rain = 0
KMD1 110043Z 14010KT 33/14 A3006 RMK A01 T03290138  RH  031%=      5-min Rain = 0
KMD1 110044Z 13012KT 33/14 A3006 RMK A01 T03290138  RH  032%=      5-min Rain = 0
KMD1 110045Z 13015KT 33/14 A3006 RMK A01 T03280137  RH  032%=      5-min Rain = 0
KMD1 110046Z 14013KT 33/14 A3006 RMK A01 T03280138  RH  032%=      5-min Rain = 0
KMD1 110047Z 15011KT 33/14 A3006 RMK A01 T03270138  RH  032%=      5-min Rain = 0
KMD1 110048Z 14010KT 33/14 A3006 RMK A01 T03270139  RH  032%=      5-min Rain = 0
KMD1 110049Z 13010KT 33/14 A3006 RMK A01 T03260138  RH  032%=      5-min Rain = 0
KMD1 110050Z 14010KT 33/14 A3006 RMK A01 T03260139  RH  032%=      5-min Rain = 0
KMD1 110051Z 12009KT 33/14 A3006 RMK A01 T03260139  RH  032%=      5-min Rain = 0
KMD1 110052Z 11013KT 33/14 A3006 RMK A01 T03260139  RH  032%=      5-min Rain = 0
KMD1 110053Z 12016KT 33/14 A3006 RMK A01 T03250138  RH  032%=      5-min Rain = 0
KMD1 110054Z 13012KT 33/14 A3006 RMK A01 T03250140  RH  033%=      5-min Rain = 0
KMD1 110055Z 13011KT 32/14 A3006 RMK A01 T03240139  RH  032%=      5-min Rain = 0
KMD1 110056Z 13009KT 32/14 A3006 RMK A01 T03240138  RH  032%=      5-min Rain = 0
KMD1 110057Z 13008KT 32/14 A3006 RMK A01 T03240141  RH  033%=      5-min Rain = 0
KMD1 110058Z 13009KT 32/14 A3006 RMK A01 T03240141  RH  033%=      5-min Rain = 0
KMD1 110059Z 13008KT 32/14 A3006 RMK A01 T03230142  RH  033%=      5-min Rain = 0
KMD1 110100Z 13008KT 32/14 A3006 RMK A01 T03230141  RH  033%=      5-min Rain = 0
KMD1 110101Z 13008KT 32/14 A3006 RMK A01 T03230141  RH  033%=      5-min Rain = 0
KMD1 110102Z 13008KT 32/14 A3006 RMK A01 T03230142  RH  034%=      5-min Rain = 0
KMD1 110103Z 13008KT 32/14 A3006 RMK A01 T03220142  RH  034%=      5-min Rain = 0
KMD1 110104Z 14010KT 32/14 A3007 RMK A01 T03220142  RH  034%=      5-min Rain = 0
KMD1 110105Z 14010KT 32/14 A3007 RMK A01 T03210141  RH  034%=      5-min Rain = 0
KMD1 110106Z 14012KT 32/14 A3007 RMK A01 T03210140  RH  033%=      5-min Rain = 0
KMD1 110107Z 15011KT 32/14 A3007 RMK A01 T03210140  RH  034%=      5-min Rain = 0
KMD1 110108Z 14011KT 32/14 A3007 RMK A01 T03200141  RH  034%=      5-min Rain = 0
KMD1 110109Z 13010KT 32/14 A3007 RMK A01 T03190140  RH  034%=      5-min Rain = 0
KMD1 110110Z 14011KT 32/14 A3007 RMK A01 T03190141  RH  034%=      5-min Rain = 0
KMD1 110111Z 13009KT 32/14 A3007 RMK A01 T03190142  RH  034%=      5-min Rain = 0
KMD1 110112Z 13010KT 32/14 A3007 RMK A01 T03180142  RH  034%=      5-min Rain = 0
KMD1 110113Z 13013KT 32/14 A3007 RMK A01 T03180141  RH  034%=      5-min Rain = 0
KMD1 110114Z 14013KT 32/14 A3007 RMK A01 T03180140  RH  034%=      5-min Rain = 0
KMD1 110115Z 14011KT 32/14 A3007 RMK A01 T03180141  RH  034%=      5-min Rain = 0
KMD1 110116Z 15010KT 32/14 A3007 RMK A01 T03180142  RH  034%=      5-min Rain = 0
KMD1 110117Z 15012KT 32/14 A3007 RMK A01 T03170141  RH  034%=      5-min Rain = 0
KMD1 110118Z 14008KT 32/14 A3007 RMK A01 T03160142  RH  035%=      5-min Rain = 0
KMD1 110119Z 15009KT 32/14 A3007 RMK A01 T03160141  RH  035%=      5-min Rain = 0
KMD1 110120Z 14008KT 32/14 A3007 RMK A01 T03150141  RH  035%=      5-min Rain = 0
KMD1 110121Z 14009KT 32/14 A3008 RMK A01 T03160142  RH  035%=      5-min Rain = 0
KMD1 110122Z 13009KT 32/14 A3008 RMK A01 T03160142  RH  035%=      5-min Rain = 0
KMD1 110123Z 14007KT 32/14 A3008 RMK A01 T03150143  RH  035%=      5-min Rain = 0
KMD1 110124Z 14010KT 31/14 A3008 RMK A01 T03140143  RH  035%=      5-min Rain = 0
KMD1 110125Z 14009KT 31/14 A3008 RMK A01 T03130141  RH  035%=      5-min Rain = 0
KMD1 110126Z 14008KT 31/14 A3008 RMK A01 T03130141  RH  035%=      5-min Rain = 0
KMD1 110127Z 14011KT 31/14 A3008 RMK A01 T03130142  RH  035%=      5-min Rain = 0
KMD1 110128Z 14011KT 31/14 A3008 RMK A01 T03130142  RH  035%=      5-min Rain = 0
KMD1 110129Z 14011KT 31/14 A3008 RMK A01 T03130141  RH  035%=      5-min Rain = 0
KMD1 110130Z 14008KT 31/14 A3008 RMK A01 T03130141  RH  035%=      5-min Rain = 0
KMD1 110131Z 15009KT 31/14 A3008 RMK A01 T03120142  RH  036%=      5-min Rain = 0
KMD1 110132Z 15010KT 31/14 A3008 RMK A01 T03120142  RH  036%=      5-min Rain = 0
KMD1 110133Z 15010KT 31/14 A3008 RMK A01 T03110142  RH  036%=      5-min Rain = 0
KMD1 110134Z 15009KT 31/14 A3008 RMK A01 T03110142  RH  036%=      5-min Rain = 0
KMD1 110135Z 15008KT 31/14 A3008 RMK A01 T03100144  RH  036%=      5-min Rain = 0
KMD1 110136Z 15008KT 31/14 A3008 RMK A01 T03090144  RH  037%=      5-min Rain = 0
KMD1 110137Z 16009KT 31/14 A3008 RMK A01 T03080144  RH  037%=      5-min Rain = 0
KMD1 110138Z 15009KT 31/14 A3008 RMK A01 T03070144  RH  037%=      5-min Rain = 0
KMD1 110139Z 15009KT 31/14 A3008 RMK A01 T03070143  RH  037%=      5-min Rain = 0
KMD1 110140Z 15008KT 31/14 A3008 RMK A01 T03070143  RH  037%=      5-min Rain = 0
KMD1 110141Z 16008KT 31/14 A3008 RMK A01 T03060143  RH  037%=      5-min Rain = 0
KMD1 110142Z 16009KT 31/15 A3008 RMK A01 T03070145  RH  037%=      5-min Rain = 0
KMD1 110143Z 16007KT 31/15 A3008 RMK A01 T03060146  RH  038%=      5-min Rain = 0
KMD1 110144Z 16010KT 31/15 A3008 RMK A01 T03060148  RH  038%=      5-min Rain = 0
KMD1 110145Z 16010KT 31/15 A3008 RMK A01 T03050149  RH  039%=      5-min Rain = 0
KMD1 110146Z 16009KT 30/15 A3008 RMK A01 T03040149  RH  039%=      5-min Rain = 0
KMD1 110147Z 17010KT 31/15 A3008 RMK A01 T03050150  RH  039%=      5-min Rain = 0
KMD1 110148Z 17011KT 31/15 A3008 RMK A01 T03050151  RH  039%=      5-min Rain = 0
KMD1 110149Z 17010KT 30/15 A3008 RMK A01 T03040152  RH  040%=      5-min Rain = 0
KMD1 110150Z 17010KT 30/15 A3008 RMK A01 T03040152  RH  040%=      5-min Rain = 0
KMD1 110151Z 17008KT 30/15 A3008 RMK A01 T03040152  RH  040%=      5-min Rain = 0
KMD1 110152Z 18008KT 30/15 A3008 RMK A01 T03030153  RH  040%=      5-min Rain = 0
KMD1 110153Z 17009KT 30/15 A3008 RMK A01 T03030153  RH  040%=      5-min Rain = 0
KMD1 110154Z 18010KT 30/15 A3008 RMK A01 T03030154  RH  041%=      5-min Rain = 0
KMD1 110155Z 18011KT 30/15 A3008 RMK A01 T03020154  RH  041%=      5-min Rain = 0
KMD1 110156Z 17011KT 30/16 A3008 RMK A01 T03030155  RH  041%=      5-min Rain = 0
KMD1 110157Z 17011KT 30/16 A3008 RMK A01 T03030155  RH  041%=      5-min Rain = 0
KMD1 110158Z 17012KT 30/16 A3008 RMK A01 T03030157  RH  041%=      5-min Rain = 0
KMD1 110159Z 17010KT 30/16 A3008 RMK A01 T03030157  RH  041%=      5-min Rain = 0
KMD1 110200Z 17011KT 30/16 A3008 RMK A01 T03020157  RH  041%=      5-min Rain = 0
KMD1 110201Z 17008KT 30/16 A3008 RMK A01 T03020157  RH  042%=      5-min Rain = 0
KMD1 110202Z 17007KT 30/16 A3008 RMK A01 T03010158  RH  042%=      5-min Rain = 0
KMD1 110203Z 17008KT 30/16 A3009 RMK A01 T03000159  RH  043%=      5-min Rain = 0
KMD1 110204Z 16010KT 30/16 A3009 RMK A01 T02990159  RH  043%=      5-min Rain = 0
KMD1 110205Z 17010KT 30/16 A3009 RMK A01 T02990159  RH  043%=      5-min Rain = 0
KMD1 110206Z 16008KT 30/16 A3009 RMK A01 T02990159  RH  043%=      5-min Rain = 0
KMD1 110207Z 16009KT 30/16 A3009 RMK A01 T02990159  RH  043%=      5-min Rain = 0
KMD1 110208Z 17010KT 30/16 A3009 RMK A01 T02980159  RH  043%=      5-min Rain = 0
KMD1 110209Z 17009KT 30/16 A3009 RMK A01 T02980160  RH  043%=      5-min Rain = 0
KMD1 110210Z 17008KT 30/16 A3009 RMK A01 T02980160  RH  043%=      5-min Rain = 0
KMD1 110211Z 17010KT 30/16 A3009 RMK A01 T02970160  RH  044%=      5-min Rain = 0
KMD1 110212Z 17010KT 30/16 A3009 RMK A01 T02970159  RH  043%=      5-min Rain = 0
KMD1 110213Z 17009KT 30/16 A3009 RMK A01 T02970160  RH  044%=      5-min Rain = 0
KMD1 110214Z 17007KT 30/16 A3009 RMK A01 T02970160  RH  044%=      5-min Rain = 0
KMD1 110215Z 17009KT 30/16 A3009 RMK A01 T02960161  RH  044%=      5-min Rain = 0
KMD1 110216Z 17007KT 30/16 A3009 RMK A01 T02950160  RH  044%=      5-min Rain = 0
KMD1 110217Z 16010KT 29/16 A3009 RMK A01 T02940161  RH  044%=      5-min Rain = 0
KMD1 110218Z 17010KT 29/16 A3009 RMK A01 T02940160  RH  044%=      5-min Rain = 0
KMD1 110219Z 17011KT 29/16 A3009 RMK A01 T02940160  RH  044%=      5-min Rain = 0
KMD1 110220Z 17013KT 30/16 A3009 RMK A01 T02950160  RH  044%=      5-min Rain = 0
KMD1 110221Z 17008KT 30/16 A3009 RMK A01 T02960160  RH  044%=      5-min Rain = 0
KMD1 110222Z 17009KT 30/16 A3009 RMK A01 T02960161  RH  044%=      5-min Rain = 0
KMD1 110223Z 17009G14KT 30/16 A3009 RMK A01 T02950161  RH  044%=      5-min Rain = 0
KMD1 110224Z 17009KT 30/16 A3009 RMK A01 T02950161  RH  044%=      5-min Rain = 0
KMD1 110225Z 17008KT 30/16 A3009 RMK A01 T02950161  RH  044%=      5-min Rain = 0
KMD1 110226Z 18011G16KT 29/16 A3009 RMK A01 T02940161  RH  045%=      5-min Rain = 0
KMD1 110227Z 17012KT 29/16 A3009 RMK A01 T02940161  RH  045%=      5-min Rain = 0
KMD1 110228Z 17011KT 29/16 A3009 RMK A01 T02940161  RH  045%=      5-min Rain = 0
KMD1 110229Z 18008KT 29/16 A3009 RMK A01 T02940161  RH  045%=      5-min Rain = 0
KMD1 110230Z 18010KT 29/16 A3009 RMK A01 T02940162  RH  045%=      5-min Rain = 0
KMD1 110231Z 18009KT 29/16 A3009 RMK A01 T02940162  RH  045%=      5-min Rain = 0
KMD1 110232Z 18010KT 29/16 A3009 RMK A01 T02930162  RH  045%=      5-min Rain = 0
KMD1 110233Z 18009KT 29/16 A3009 RMK A01 T02930162  RH  045%=      5-min Rain = 0
KMD1 110234Z 17009KT 29/16 A3009 RMK A01 T02930162  RH  045%=      5-min Rain = 0
KMD1 110235Z 17008KT 29/16 A3009 RMK A01 T02920162  RH  045%=      5-min Rain = 0
KMD1 110236Z 18010KT 29/16 A3009 RMK A01 T02920163  RH  046%=      5-min Rain = 0
KMD1 110237Z 18011KT 29/16 A3009 RMK A01 T02920162  RH  045%=      5-min Rain = 0
KMD1 110238Z 17010KT 29/16 A3009 RMK A01 T02920162  RH  045%=      5-min Rain = 0
KMD1 110239Z 18011KT 29/16 A3009 RMK A01 T02920162  RH  046%=      5-min Rain = 0
KMD1 110240Z 18010KT 29/16 A3009 RMK A01 T02920163  RH  046%=      5-min Rain = 0
KMD1 110241Z 18009KT 29/16 A3009 RMK A01 T02920163  RH  046%=      5-min Rain = 0
KMD1 110242Z 18009KT 29/16 A3009 RMK A01 T02920163  RH  046%=      5-min Rain = 0
KMD1 110243Z 18009KT 29/16 A3009 RMK A01 T02920163  RH  046%=      5-min Rain = 0
KMD1 110244Z 18009KT 29/16 A3009 RMK A01 T02910163  RH  046%=      5-min Rain = 0
KMD1 110245Z 18008KT 29/16 A3009 RMK A01 T02910163  RH  046%=      5-min Rain = 0
KMD1 110246Z 18008KT 29/16 A3009 RMK A01 T02910163  RH  046%=      5-min Rain = 0
KMD1 110247Z 18010G15KT 29/16 A3009 RMK A01 T02900163  RH  046%=      5-min Rain = 0
KMD1 110248Z 19012KT 29/16 A3009 RMK A01 T02900163  RH  046%=      5-min Rain = 0
KMD1 110249Z 18010KT 29/16 A3009 RMK A01 T02900162  RH  046%=      5-min Rain = 0
KMD1 110250Z 18009KT 29/16 A3009 RMK A01 T02900163  RH  046%=      5-min Rain = 0
KMD1 110251Z 18008KT 29/16 A3009 RMK A01 T02900163  RH  046%=      5-min Rain = 0
KMD1 110252Z 18009KT 29/16 A3009 RMK A01 T02900163  RH  046%=      5-min Rain = 0
KMD1 110253Z 18010KT 29/16 A3009 RMK A01 T02900163  RH  046%=      5-min Rain = 0
KMD1 110254Z 19011KT 29/16 A3009 RMK A01 T02900163  RH  046%=      5-min Rain = 0
KMD1 110255Z 18009KT 29/16 A301 RMK A01 T02900163  RH  046%=      5-min Rain = 0
KMD1 110256Z 18008KT 29/16 A301 RMK A01 T02900164  RH  046%=      5-min Rain = 0
KMD1 110257Z 18008KT 29/16 A301 RMK A01 T02890164  RH  047%=      5-min Rain = 0
KMD1 110258Z 18009KT 29/16 A301 RMK A01 T02880164  RH  047%=      5-min Rain = 0
KMD1 110259Z 17008KT 29/16 A301 RMK A01 T02880163  RH  047%=      5-min Rain = 0
KMD1 110300Z 17007KT 29/16 A301 RMK A01 T02880164  RH  047%=      5-min Rain = 0
KMD1 110301Z 18006KT 29/16 A301 RMK A01 T02870164  RH  047%=      5-min Rain = 0
KMD1 110302Z 18006KT 29/16 A301 RMK A01 T02860164  RH  048%=      5-min Rain = 0
KMD1 110303Z 17009KT 29/16 A301 RMK A01 T02850164  RH  048%=      5-min Rain = 0
KMD1 110304Z 18009KT 29/16 A301 RMK A01 T02850164  RH  048%=      5-min Rain = 0
KMD1 110305Z 19008KT 28/16 A301 RMK A01 T02840163  RH  048%=      5-min Rain = 0
KMD1 110306Z 17008KT 29/16 A301 RMK A01 T02850163  RH  048%=      5-min Rain = 0
KMD1 110307Z 18009KT 29/16 A301 RMK A01 T02850163  RH  048%=      5-min Rain = 0
KMD1 110308Z 17010KT 29/16 A301 RMK A01 T02850163  RH  048%=      5-min Rain = 0
KMD1 110309Z 18007KT 29/16 A301 RMK A01 T02850163  RH  048%=      5-min Rain = 0
KMD1 110310Z 17009KT 29/16 A301 RMK A01 T02850164  RH  048%=      5-min Rain = 0
KMD1 110311Z 17008KT 29/16 A301 RMK A01 T02850164  RH  048%=      5-min Rain = 0
KMD1 110312Z 17007KT 29/16 A301 RMK A01 T02850164  RH  048%=      5-min Rain = 0
KMD1 110313Z 18009KT 28/16 A301 RMK A01 T02840164  RH  048%=      5-min Rain = 0
KMD1 110314Z 17009KT 28/16 A301 RMK A01 T02840164  RH  048%=      5-min Rain = 0
KMD1 110315Z 17009KT 28/16 A301 RMK A01 T02840164  RH  048%=      5-min Rain = 0
KMD1 110316Z 18008KT 28/16 A301 RMK A01 T02840164  RH  048%=      5-min Rain = 0
KMD1 110317Z 17007KT 28/17 A301 RMK A01 T02840165  RH  048%=      5-min Rain = 0
KMD1 110318Z 17008KT 28/17 A301 RMK A01 T02830165  RH  049%=      5-min Rain = 0
KMD1 110319Z 18008KT 28/17 A301 RMK A01 T02820165  RH  049%=      5-min Rain = 0
KMD1 110320Z 18009KT 28/17 A301 RMK A01 T02820165  RH  049%=      5-min Rain = 0
KMD1 110321Z 18009KT 28/16 A301 RMK A01 T02820164  RH  049%=      5-min Rain = 0
KMD1 110322Z 18008KT 28/16 A301 RMK A01 T02820164  RH  049%=      5-min Rain = 0
KMD1 110323Z 18007KT 28/17 A301 RMK A01 T02830165  RH  049%=      5-min Rain = 0
KMD1 110324Z 18008KT 28/17 A3011 RMK A01 T02820165  RH  049%=      5-min Rain = 0
KMD1 110325Z 18009KT 28/16 A3011 RMK A01 T02810164  RH  049%=      5-min Rain = 0
KMD1 110326Z 18007KT 28/16 A3011 RMK A01 T02820164  RH  049%=      5-min Rain = 0
KMD1 110327Z 18009KT 28/17 A3011 RMK A01 T02820165  RH  049%=      5-min Rain = 0
KMD1 110328Z 17009KT 28/17 A3011 RMK A01 T02830165  RH  049%=      5-min Rain = 0
KMD1 110329Z 18008KT 28/17 A3011 RMK A01 T02820165  RH  049%=      5-min Rain = 0
KMD1 110330Z 18006KT 28/17 A3011 RMK A01 T02820166  RH  049%=      5-min Rain = 0
KMD1 110331Z 18008KT 28/17 A3011 RMK A01 T02810165  RH  049%=      5-min Rain = 0
KMD1 110332Z 18008KT 28/17 A3011 RMK A01 T02810166  RH  050%=      5-min Rain = 0
KMD1 110333Z 18008KT 28/17 A3011 RMK A01 T02800165  RH  050%=      5-min Rain = 0
KMD1 110334Z 18007KT 28/17 A3011 RMK A01 T02800165  RH  050%=      5-min Rain = 0
KMD1 110335Z 18008KT 28/17 A3011 RMK A01 T02800165  RH  050%=      5-min Rain = 0
KMD1 110336Z 18007KT 28/17 A3011 RMK A01 T02810166  RH  050%=      5-min Rain = 0
KMD1 110337Z 18007KT 28/17 A3011 RMK A01 T02800166  RH  050%=      5-min Rain = 0
KMD1 110338Z 19010KT 28/17 A3011 RMK A01 T02790165  RH  050%=      5-min Rain = 0
KMD1 110339Z 19008KT 28/17 A3011 RMK A01 T02800165  RH  049%=      5-min Rain = 0
KMD1 110340Z 18006KT 28/16 A3011 RMK A01 T02800164  RH  049%=      5-min Rain = 0
KMD1 110341Z 18006KT 28/17 A3011 RMK A01 T02810165  RH  049%=      5-min Rain = 0
KMD1 110342Z 18009KT 28/17 A3011 RMK A01 T02800165  RH  050%=      5-min Rain = 0
KMD1 110343Z 19008KT 28/17 A3011 RMK A01 T02800165  RH  050%=      5-min Rain = 0
KMD1 110344Z 18007KT 28/17 A3011 RMK A01 T02800165  RH  050%=      5-min Rain = 0
KMD1 110345Z 18007KT 28/17 A3011 RMK A01 T02800165  RH  050%=      5-min Rain = 0
KMD1 110346Z 18009KT 28/17 A3011 RMK A01 T02790165  RH  050%=      5-min Rain = 0
KMD1 110347Z 18009KT 28/16 A3011 RMK A01 T02790164  RH  050%=      5-min Rain = 0
KMD1 110348Z 19007KT 28/17 A3011 RMK A01 T02790165  RH  050%=      5-min Rain = 0
KMD1 110349Z 18008KT 28/17 A3011 RMK A01 T02790165  RH  050%=      5-min Rain = 0
KMD1 110350Z 18008KT 28/17 A3011 RMK A01 T02780165  RH  050%=      5-min Rain = 0
KMD1 110351Z 18009KT 28/16 A3011 RMK A01 T02780164  RH  050%=      5-min Rain = 0
KMD1 110352Z 18008KT 28/16 A3011 RMK A01 T02780164  RH  050%=      5-min Rain = 0
KMD1 110353Z 18008KT 28/17 A3011 RMK A01 T02780165  RH  050%=      5-min Rain = 0
KMD1 110354Z 19009KT 28/17 A3011 RMK A01 T02770165  RH  050%=      5-min Rain = 0
KMD1 110355Z 18008KT 28/17 A3011 RMK A01 T02770165  RH  050%=      5-min Rain = 0
KMD1 110356Z 18008KT 28/17 A3011 RMK A01 T02770165  RH  050%=      5-min Rain = 0
KMD1 110357Z 18008KT 28/17 A3011 RMK A01 T02770165  RH  050%=      5-min Rain = 0
KMD1 110358Z 18009KT 28/17 A3011 RMK A01 T02760165  RH  051%=      5-min Rain = 0
KMD1 110359Z 18007KT 28/17 A3011 RMK A01 T02760165  RH  051%=      5-min Rain = 0
KMD1 110400Z 18008KT 28/17 A3011 RMK A01 T02760165  RH  051%=      5-min Rain = 0
KMD1 110401Z 18006KT 28/17 A3011 RMK A01 T02760165  RH  051%=      5-min Rain = 0
KMD1 110402Z 18007KT 28/17 A3011 RMK A01 T02750166  RH  051%=      5-min Rain = 0
KMD1 110403Z 19007KT 28/17 A3011 RMK A01 T02750166  RH  051%=      5-min Rain = 0
KMD1 110404Z 18005KT 28/17 A3012 RMK A01 T02750166  RH  051%=      5-min Rain = 0
KMD1 110405Z 19007KT 28/17 A3012 RMK A01 T02750166  RH  051%=      5-min Rain = 0
KMD1 110406Z 19007KT 27/17 A3012 RMK A01 T02740166  RH  051%=      5-min Rain = 0
KMD1 110407Z 18007KT 27/17 A3012 RMK A01 T02740165  RH  052%=      5-min Rain = 0
KMD1 110408Z 18008KT 27/17 A3012 RMK A01 T02740166  RH  052%=      5-min Rain = 0
KMD1 110409Z 19005KT 27/17 A3012 RMK A01 T02740166  RH  052%=      5-min Rain = 0
KMD1 110410Z 19005KT 27/17 A3012 RMK A01 T02740166  RH  052%=      5-min Rain = 0
KMD1 110411Z 20004KT 27/17 A3012 RMK A01 T02740167  RH  052%=      5-min Rain = 0
KMD1 110412Z 19005KT 27/17 A3012 RMK A01 T02740167  RH  052%=      5-min Rain = 0
KMD1 110413Z 19005KT 27/17 A3012 RMK A01 T02730167  RH  052%=      5-min Rain = 0
KMD1 110414Z 20006KT 27/17 A3012 RMK A01 T02720167  RH  052%=      5-min Rain = 0
KMD1 110415Z 20006KT 27/17 A3012 RMK A01 T02720167  RH  052%=      5-min Rain = 0
KMD1 110416Z 20005KT 27/17 A3012 RMK A01 T02720167  RH  053%=      5-min Rain = 0
KMD1 110417Z 19008KT 27/17 A3012 RMK A01 T02710167  RH  053%=      5-min Rain = 0
KMD1 110418Z 20006KT 27/17 A3012 RMK A01 T02710167  RH  053%=      5-min Rain = 0
KMD1 110419Z 20004KT 27/17 A3012 RMK A01 T02710167  RH  053%=      5-min Rain = 0
KMD1 110420Z 20004KT 27/17 A3012 RMK A01 T02700168  RH  054%=      5-min Rain = 0
KMD1 110421Z 20005KT 27/17 A3012 RMK A01 T02690168  RH  054%=      5-min Rain = 0
KMD1 110422Z 20005KT 27/17 A3012 RMK A01 T02680168  RH  054%=      5-min Rain = 0
KMD1 110423Z 20005KT 27/17 A3011 RMK A01 T02680168  RH  054%=      5-min Rain = 0
KMD1 110424Z 20004KT 27/17 A3011 RMK A01 T02680168  RH  054%=      5-min Rain = 0
KMD1 110425Z 20004KT 27/17 A3011 RMK A01 T02670168  RH  054%=      5-min Rain = 0
KMD1 110426Z 20004KT 27/17 A3011 RMK A01 T02670168  RH  055%=      5-min Rain = 0
KMD1 110427Z 20004KT 27/17 A3012 RMK A01 T02660168  RH  055%=      5-min Rain = 0
KMD1 110428Z 21004KT 27/17 A3012 RMK A01 T02660168  RH  055%=      5-min Rain = 0
KMD1 110429Z 21003KT 27/17 A3012 RMK A01 T02660168  RH  055%=      5-min Rain = 0
KMD1 110430Z 21003KT 27/17 A3012 RMK A01 T02650169  RH  055%=      5-min Rain = 0
KMD1 110431Z 20003KT 26/17 A3012 RMK A01 T02640168  RH  056%=      5-min Rain = 0
KMD1 110432Z 22003KT 26/17 A3011 RMK A01 T02640168  RH  056%=      5-min Rain = 0
KMD1 110433Z 22003KT 26/17 A3011 RMK A01 T02630169  RH  056%=      5-min Rain = 0
KMD1 110434Z 21002KT 26/17 A3011 RMK A01 T02630169  RH  056%=      5-min Rain = 0
KMD1 110435Z 20003KT 26/17 A3011 RMK A01 T02620169  RH  056%=      5-min Rain = 0
KMD1 110436Z 20003KT 26/17 A3011 RMK A01 T02610168  RH  057%=      5-min Rain = 0
KMD1 110437Z 21003KT 26/17 A3011 RMK A01 T02610169  RH  057%=      5-min Rain = 0
KMD1 110438Z 21002KT 26/17 A3011 RMK A01 T02610168  RH  057%=      5-min Rain = 0
KMD1 110439Z 20002KT 26/17 A3011 RMK A01 T02610168  RH  057%=      5-min Rain = 0
KMD1 110440Z 21002KT 26/17 A3011 RMK A01 T02610168  RH  057%=      5-min Rain = 0
KMD1 110441Z 20004KT 26/17 A3011 RMK A01 T02600169  RH  057%=      5-min Rain = 0
KMD1 110442Z 21003KT 26/17 A3011 RMK A01 T02600168  RH  057%=      5-min Rain = 0
KMD1 110443Z 20003KT 26/17 A3011 RMK A01 T02600169  RH  057%=      5-min Rain = 0
KMD1 110444Z 21003KT 26/17 A3011 RMK A01 T02600169  RH  057%=      5-min Rain = 0
KMD1 110445Z 20004KT 26/17 A3011 RMK A01 T02600169  RH  057%=      5-min Rain = 0
KMD1 110446Z 19004KT 26/17 A3011 RMK A01 T02600169  RH  057%=      5-min Rain = 0
KMD1 110447Z 20004KT 26/17 A3011 RMK A01 T02600169  RH  057%=      5-min Rain = 0
KMD1 110448Z 20003KT 26/17 A3011 RMK A01 T02600168  RH  057%=      5-min Rain = 0
KMD1 110449Z 20003KT 26/17 A3011 RMK A01 T02600169  RH  057%=      5-min Rain = 0
KMD1 110450Z 20003KT 26/17 A3011 RMK A01 T02600169  RH  057%=      5-min Rain = 0
KMD1 110451Z 20003KT 26/17 A3011 RMK A01 T02590169  RH  057%=      5-min Rain = 0
KMD1 110452Z 20003KT 26/17 A3011 RMK A01 T02590169  RH  058%=      5-min Rain = 0
KMD1 110453Z 20004KT 26/17 A3011 RMK A01 T02590169  RH  058%=      5-min Rain = 0
KMD1 110454Z 19004KT 26/17 A3011 RMK A01 T02590169  RH  058%=      5-min Rain = 0
KMD1 110455Z 21003KT 26/17 A3011 RMK A01 T02580169  RH  058%=      5-min Rain = 0
KMD1 110456Z 20004KT 26/17 A3011 RMK A01 T02580169  RH  058%=      5-min Rain = 0
KMD1 110457Z 19004KT 26/17 A3011 RMK A01 T02580169  RH  058%=      5-min Rain = 0
KMD1 110458Z 20003KT 26/17 A3011 RMK A01 T02580169  RH  058%=      5-min Rain = 0
KMD1 110459Z 20003KT 26/17 A3011 RMK A01 T02580169  RH  058%=      5-min Rain = 0

Page generated in 0.0408 seconds.